<?xml version="1.0" encoding="UTF-8" standalone="no" ?>
<gpx xmlns="http://www.topografix.com/GPX/1/1" creator="CompeGPS" version="1.1" xmlns:xsi="http://www.w3.org/2001/XMLSchema-instance" xsi:schemaLocation="http://www.topografix.com/GPX/1/1 http://www.topografix.com/GPX/1/1/gpx.xsd http://www.garmin.com/xmlschemas/GpxExtensions/v3 http://www.garmin.com/xmlschemas/GpxExtensionsv3.xsd http://www.garmin.com/xmlschemas/TrackPointExtension/v1 http://www.garmin.com/xmlschemas/TrackPointExtensionv1.xsd" xmlns:gpxtpx="http://www.garmin.com/xmlschemas/TrackPointExtension/v1">
  <metadata>
    <link href="http://www.compegps.com">
      <text>CompeGPS TEAM, SL</text>
    </link>
    <time>2014-03-17T10:57:34Z</time>
    <bounds maxlat="43.863943" maxlon="1.546560" minlat="43.840139" minlon="1.521713"/>
  </metadata>
<wpt lat="43.840187" lon="1.539587">
<ele>105</ele>
<name>Bondigoux</name>
</wpt>
<wpt lat="43.841770" lon="1.535791">
<ele>105</ele>
<name>Debut boucle</name>
</wpt>
<wpt lat="43.849107" lon="1.546560">
<ele>106</ele>
<name>Chemin de Tire Crabe</name>
</wpt>
<wpt lat="43.852671" lon="1.543161">
<ele>149</ele>
<name>Bifurcation</name>
</wpt>
<wpt lat="43.853207" lon="1.523228">
<ele>199</ele>
<name>Croix de Peyre</name>
</wpt>
<trk>
    <name>Bondigoux</name>
    <trkseg>
      <trkpt lat="43.840187" lon="1.539587">
        <ele>118.5</ele>
        <time>2014-03-15T14:00:07Z</time>
        <name>Bondigoux</name>
      </trkpt>
      <trkpt lat="43.840278" lon="1.539659">
        <ele>118.0</ele>
        <time>2014-03-15T14:00:35Z</time>
      </trkpt>
      <trkpt lat="43.840383" lon="1.539657">
        <ele>118.0</ele>
        <time>2014-03-15T14:00:46Z</time>
      </trkpt>
      <trkpt lat="43.840452" lon="1.539586">
        <ele>117.8</ele>
        <time>2014-03-15T14:01:00Z</time>
      </trkpt>
      <trkpt lat="43.840560" lon="1.539471">
        <ele>117.5</ele>
        <time>2014-03-15T14:01:17Z</time>
      </trkpt>
      <trkpt lat="43.840638" lon="1.539343">
        <ele>117.0</ele>
        <time>2014-03-15T14:01:26Z</time>
      </trkpt>
      <trkpt lat="43.840710" lon="1.539252">
        <ele>116.9</ele>
        <time>2014-03-15T14:01:35Z</time>
      </trkpt>
      <trkpt lat="43.840769" lon="1.539144">
        <ele>117.1</ele>
        <time>2014-03-15T14:01:43Z</time>
      </trkpt>
      <trkpt lat="43.840832" lon="1.539017">
        <ele>117.2</ele>
        <time>2014-03-15T14:01:53Z</time>
      </trkpt>
      <trkpt lat="43.840902" lon="1.538904">
        <ele>117.2</ele>
        <time>2014-03-15T14:02:01Z</time>
      </trkpt>
      <trkpt lat="43.840961" lon="1.538806">
        <ele>117.2</ele>
        <time>2014-03-15T14:02:09Z</time>
      </trkpt>
      <trkpt lat="43.841020" lon="1.538711">
        <ele>117.2</ele>
        <time>2014-03-15T14:02:17Z</time>
      </trkpt>
      <trkpt lat="43.841078" lon="1.538601">
        <ele>117.1</ele>
        <time>2014-03-15T14:02:25Z</time>
      </trkpt>
      <trkpt lat="43.841136" lon="1.538496">
        <ele>116.9</ele>
        <time>2014-03-15T14:02:32Z</time>
      </trkpt>
      <trkpt lat="43.841186" lon="1.538379">
        <ele>116.4</ele>
        <time>2014-03-15T14:02:39Z</time>
      </trkpt>
      <trkpt lat="43.841196" lon="1.538268">
        <ele>116.8</ele>
        <time>2014-03-15T14:02:48Z</time>
      </trkpt>
      <trkpt lat="43.841158" lon="1.538152">
        <ele>116.8</ele>
        <time>2014-03-15T14:02:56Z</time>
      </trkpt>
      <trkpt lat="43.841075" lon="1.538065">
        <ele>116.9</ele>
        <time>2014-03-15T14:03:04Z</time>
      </trkpt>
      <trkpt lat="43.840975" lon="1.537990">
        <ele>117.1</ele>
        <time>2014-03-15T14:03:12Z</time>
      </trkpt>
      <trkpt lat="43.840907" lon="1.537904">
        <ele>117.2</ele>
        <time>2014-03-15T14:03:19Z</time>
      </trkpt>
      <trkpt lat="43.840851" lon="1.537797">
        <ele>117.1</ele>
        <time>2014-03-15T14:03:28Z</time>
      </trkpt>
      <trkpt lat="43.840772" lon="1.537693">
        <ele>117.0</ele>
        <time>2014-03-15T14:03:38Z</time>
      </trkpt>
      <trkpt lat="43.840690" lon="1.537609">
        <ele>117.3</ele>
        <time>2014-03-15T14:03:45Z</time>
      </trkpt>
      <trkpt lat="43.840618" lon="1.537497">
        <ele>117.4</ele>
        <time>2014-03-15T14:03:53Z</time>
      </trkpt>
      <trkpt lat="43.840540" lon="1.537402">
        <ele>117.6</ele>
        <time>2014-03-15T14:04:00Z</time>
      </trkpt>
      <trkpt lat="43.840460" lon="1.537323">
        <ele>117.9</ele>
        <time>2014-03-15T14:04:08Z</time>
      </trkpt>
      <trkpt lat="43.840477" lon="1.537219">
        <ele>117.7</ele>
        <time>2014-03-15T14:04:20Z</time>
      </trkpt>
      <trkpt lat="43.840539" lon="1.537102">
        <ele>117.6</ele>
        <time>2014-03-15T14:04:28Z</time>
      </trkpt>
      <trkpt lat="43.840601" lon="1.536988">
        <ele>117.7</ele>
        <time>2014-03-15T14:04:36Z</time>
      </trkpt>
      <trkpt lat="43.840672" lon="1.536870">
        <ele>117.3</ele>
        <time>2014-03-15T14:04:45Z</time>
      </trkpt>
      <trkpt lat="43.840763" lon="1.536779">
        <ele>117.5</ele>
        <time>2014-03-15T14:04:54Z</time>
      </trkpt>
      <trkpt lat="43.840841" lon="1.536670">
        <ele>116.9</ele>
        <time>2014-03-15T14:05:03Z</time>
      </trkpt>
      <trkpt lat="43.840920" lon="1.536596">
        <ele>116.6</ele>
        <time>2014-03-15T14:05:10Z</time>
      </trkpt>
      <trkpt lat="43.841005" lon="1.536507">
        <ele>116.0</ele>
        <time>2014-03-15T14:05:18Z</time>
      </trkpt>
      <trkpt lat="43.841069" lon="1.536450">
        <ele>115.2</ele>
        <time>2014-03-15T14:05:24Z</time>
      </trkpt>
      <trkpt lat="43.841153" lon="1.536411">
        <ele>114.3</ele>
        <time>2014-03-15T14:05:32Z</time>
      </trkpt>
      <trkpt lat="43.841259" lon="1.536378">
        <ele>113.0</ele>
        <time>2014-03-15T14:05:42Z</time>
      </trkpt>
      <trkpt lat="43.841356" lon="1.536349">
        <ele>112.8</ele>
        <time>2014-03-15T14:05:50Z</time>
      </trkpt>
      <trkpt lat="43.841474" lon="1.536274">
        <ele>112.9</ele>
        <time>2014-03-15T14:06:01Z</time>
      </trkpt>
      <trkpt lat="43.841558" lon="1.536195">
        <ele>113.2</ele>
        <time>2014-03-15T14:06:09Z</time>
      </trkpt>
      <trkpt lat="43.841617" lon="1.536105">
        <ele>112.8</ele>
        <time>2014-03-15T14:06:17Z</time>
      </trkpt>
      <trkpt lat="43.841668" lon="1.536000">
        <ele>112.4</ele>
        <time>2014-03-15T14:06:24Z</time>
      </trkpt>
      <trkpt lat="43.841701" lon="1.535894">
        <ele>112.6</ele>
        <time>2014-03-15T14:06:32Z</time>
      </trkpt>
      <trkpt lat="43.841770" lon="1.535791">
        <ele>112.4</ele>
        <time>2014-03-15T14:06:42Z</time>
        <name>Debut boucle</name>
      </trkpt>
      <trkpt lat="43.841877" lon="1.535785">
        <ele>112.4</ele>
        <time>2014-03-15T14:06:51Z</time>
      </trkpt>
      <trkpt lat="43.841962" lon="1.535888">
        <ele>113.0</ele>
        <time>2014-03-15T14:07:00Z</time>
      </trkpt>
      <trkpt lat="43.842021" lon="1.536005">
        <ele>113.0</ele>
        <time>2014-03-15T14:07:09Z</time>
      </trkpt>
      <trkpt lat="43.842080" lon="1.536113">
        <ele>113.2</ele>
        <time>2014-03-15T14:07:17Z</time>
      </trkpt>
      <trkpt lat="43.842151" lon="1.536213">
        <ele>113.6</ele>
        <time>2014-03-15T14:07:25Z</time>
      </trkpt>
      <trkpt lat="43.842206" lon="1.536327">
        <ele>113.9</ele>
        <time>2014-03-15T14:07:34Z</time>
      </trkpt>
      <trkpt lat="43.842261" lon="1.536463">
        <ele>114.0</ele>
        <time>2014-03-15T14:07:44Z</time>
      </trkpt>
      <trkpt lat="43.842317" lon="1.536576">
        <ele>114.3</ele>
        <time>2014-03-15T14:07:54Z</time>
      </trkpt>
      <trkpt lat="43.842381" lon="1.536683">
        <ele>114.4</ele>
        <time>2014-03-15T14:08:03Z</time>
      </trkpt>
      <trkpt lat="43.842434" lon="1.536827">
        <ele>114.7</ele>
        <time>2014-03-15T14:08:12Z</time>
      </trkpt>
      <trkpt lat="43.842501" lon="1.536929">
        <ele>114.9</ele>
        <time>2014-03-15T14:08:20Z</time>
      </trkpt>
      <trkpt lat="43.842588" lon="1.536985">
        <ele>114.9</ele>
        <time>2014-03-15T14:08:28Z</time>
      </trkpt>
      <trkpt lat="43.842651" lon="1.537096">
        <ele>115.3</ele>
        <time>2014-03-15T14:08:36Z</time>
      </trkpt>
      <trkpt lat="43.842726" lon="1.537200">
        <ele>114.7</ele>
        <time>2014-03-15T14:08:45Z</time>
      </trkpt>
      <trkpt lat="43.842806" lon="1.537278">
        <ele>113.8</ele>
        <time>2014-03-15T14:08:52Z</time>
      </trkpt>
      <trkpt lat="43.842878" lon="1.537355">
        <ele>113.3</ele>
        <time>2014-03-15T14:08:59Z</time>
      </trkpt>
      <trkpt lat="43.842945" lon="1.537444">
        <ele>113.5</ele>
        <time>2014-03-15T14:09:07Z</time>
      </trkpt>
      <trkpt lat="43.843024" lon="1.537542">
        <ele>113.5</ele>
        <time>2014-03-15T14:09:15Z</time>
      </trkpt>
      <trkpt lat="43.843090" lon="1.537630">
        <ele>113.5</ele>
        <time>2014-03-15T14:09:22Z</time>
      </trkpt>
      <trkpt lat="43.843157" lon="1.537718">
        <ele>113.8</ele>
        <time>2014-03-15T14:09:30Z</time>
      </trkpt>
      <trkpt lat="43.843220" lon="1.537825">
        <ele>114.5</ele>
        <time>2014-03-15T14:09:38Z</time>
      </trkpt>
      <trkpt lat="43.843283" lon="1.537907">
        <ele>114.8</ele>
        <time>2014-03-15T14:09:45Z</time>
      </trkpt>
      <trkpt lat="43.843363" lon="1.537975">
        <ele>115.3</ele>
        <time>2014-03-15T14:09:53Z</time>
      </trkpt>
      <trkpt lat="43.843444" lon="1.538041">
        <ele>116.6</ele>
        <time>2014-03-15T14:10:02Z</time>
      </trkpt>
      <trkpt lat="43.843532" lon="1.538140">
        <ele>118.1</ele>
        <time>2014-03-15T14:10:11Z</time>
      </trkpt>
      <trkpt lat="43.843608" lon="1.538232">
        <ele>119.2</ele>
        <time>2014-03-15T14:10:20Z</time>
      </trkpt>
      <trkpt lat="43.843667" lon="1.538309">
        <ele>120.1</ele>
        <time>2014-03-15T14:10:30Z</time>
      </trkpt>
      <trkpt lat="43.843770" lon="1.538370">
        <ele>121.4</ele>
        <time>2014-03-15T14:10:42Z</time>
      </trkpt>
      <trkpt lat="43.843856" lon="1.538469">
        <ele>124.9</ele>
        <time>2014-03-15T14:10:52Z</time>
      </trkpt>
      <trkpt lat="43.843941" lon="1.538553">
        <ele>126.5</ele>
        <time>2014-03-15T14:11:02Z</time>
      </trkpt>
      <trkpt lat="43.844029" lon="1.538640">
        <ele>128.8</ele>
        <time>2014-03-15T14:11:13Z</time>
      </trkpt>
      <trkpt lat="43.844120" lon="1.538756">
        <ele>130.0</ele>
        <time>2014-03-15T14:11:24Z</time>
      </trkpt>
      <trkpt lat="43.844202" lon="1.538871">
        <ele>132.4</ele>
        <time>2014-03-15T14:11:35Z</time>
      </trkpt>
      <trkpt lat="43.844302" lon="1.538999">
        <ele>134.1</ele>
        <time>2014-03-15T14:11:46Z</time>
      </trkpt>
      <trkpt lat="43.844378" lon="1.539145">
        <ele>134.5</ele>
        <time>2014-03-15T14:11:55Z</time>
      </trkpt>
      <trkpt lat="43.844453" lon="1.539263">
        <ele>135.5</ele>
        <time>2014-03-15T14:12:04Z</time>
      </trkpt>
      <trkpt lat="43.844541" lon="1.539379">
        <ele>136.6</ele>
        <time>2014-03-15T14:12:15Z</time>
      </trkpt>
      <trkpt lat="43.844638" lon="1.539495">
        <ele>138.3</ele>
        <time>2014-03-15T14:12:27Z</time>
      </trkpt>
      <trkpt lat="43.844705" lon="1.539587">
        <ele>139.6</ele>
        <time>2014-03-15T14:12:46Z</time>
      </trkpt>
      <trkpt lat="43.844717" lon="1.539720">
        <ele>139.1</ele>
        <time>2014-03-15T14:12:58Z</time>
      </trkpt>
      <trkpt lat="43.844729" lon="1.539880">
        <ele>138.0</ele>
        <time>2014-03-15T14:13:09Z</time>
      </trkpt>
      <trkpt lat="43.844720" lon="1.540070">
        <ele>136.7</ele>
        <time>2014-03-15T14:13:20Z</time>
      </trkpt>
      <trkpt lat="43.844679" lon="1.540268">
        <ele>135.9</ele>
        <time>2014-03-15T14:13:31Z</time>
      </trkpt>
      <trkpt lat="43.844620" lon="1.540425">
        <ele>135.2</ele>
        <time>2014-03-15T14:13:40Z</time>
      </trkpt>
      <trkpt lat="43.844560" lon="1.540554">
        <ele>133.6</ele>
        <time>2014-03-15T14:13:50Z</time>
      </trkpt>
      <trkpt lat="43.844493" lon="1.540671">
        <ele>132.8</ele>
        <time>2014-03-15T14:13:59Z</time>
      </trkpt>
      <trkpt lat="43.844431" lon="1.540759">
        <ele>132.1</ele>
        <time>2014-03-15T14:14:06Z</time>
      </trkpt>
      <trkpt lat="43.844350" lon="1.540848">
        <ele>131.4</ele>
        <time>2014-03-15T14:14:15Z</time>
      </trkpt>
      <trkpt lat="43.844268" lon="1.540954">
        <ele>130.5</ele>
        <time>2014-03-15T14:14:23Z</time>
      </trkpt>
      <trkpt lat="43.844195" lon="1.541049">
        <ele>129.5</ele>
        <time>2014-03-15T14:14:31Z</time>
      </trkpt>
      <trkpt lat="43.844129" lon="1.541162">
        <ele>128.1</ele>
        <time>2014-03-15T14:14:40Z</time>
      </trkpt>
      <trkpt lat="43.844063" lon="1.541275">
        <ele>126.4</ele>
        <time>2014-03-15T14:14:51Z</time>
      </trkpt>
      <trkpt lat="43.844001" lon="1.541389">
        <ele>125.7</ele>
        <time>2014-03-15T14:14:59Z</time>
      </trkpt>
      <trkpt lat="43.843932" lon="1.541515">
        <ele>124.2</ele>
        <time>2014-03-15T14:15:08Z</time>
      </trkpt>
      <trkpt lat="43.843866" lon="1.541634">
        <ele>123.4</ele>
        <time>2014-03-15T14:15:17Z</time>
      </trkpt>
      <trkpt lat="43.843794" lon="1.541749">
        <ele>122.1</ele>
        <time>2014-03-15T14:15:26Z</time>
      </trkpt>
      <trkpt lat="43.843731" lon="1.541857">
        <ele>121.0</ele>
        <time>2014-03-15T14:15:34Z</time>
      </trkpt>
      <trkpt lat="43.843652" lon="1.542002">
        <ele>120.0</ele>
        <time>2014-03-15T14:15:44Z</time>
      </trkpt>
      <trkpt lat="43.843585" lon="1.542107">
        <ele>119.4</ele>
        <time>2014-03-15T14:15:52Z</time>
      </trkpt>
      <trkpt lat="43.843522" lon="1.542240">
        <ele>118.6</ele>
        <time>2014-03-15T14:16:02Z</time>
      </trkpt>
      <trkpt lat="43.843448" lon="1.542359">
        <ele>117.4</ele>
        <time>2014-03-15T14:16:12Z</time>
      </trkpt>
      <trkpt lat="43.843368" lon="1.542483">
        <ele>116.5</ele>
        <time>2014-03-15T14:16:22Z</time>
      </trkpt>
      <trkpt lat="43.843366" lon="1.542657">
        <ele>115.6</ele>
        <time>2014-03-15T14:16:33Z</time>
      </trkpt>
      <trkpt lat="43.843405" lon="1.542829">
        <ele>115.1</ele>
        <time>2014-03-15T14:16:43Z</time>
      </trkpt>
      <trkpt lat="43.843455" lon="1.542989">
        <ele>114.9</ele>
        <time>2014-03-15T14:16:52Z</time>
      </trkpt>
      <trkpt lat="43.843492" lon="1.543142">
        <ele>114.5</ele>
        <time>2014-03-15T14:17:00Z</time>
      </trkpt>
      <trkpt lat="43.843520" lon="1.543311">
        <ele>114.5</ele>
        <time>2014-03-15T14:17:08Z</time>
      </trkpt>
      <trkpt lat="43.843553" lon="1.543444">
        <ele>114.2</ele>
        <time>2014-03-15T14:17:14Z</time>
      </trkpt>
      <trkpt lat="43.843578" lon="1.543594">
        <ele>113.8</ele>
        <time>2014-03-15T14:17:23Z</time>
      </trkpt>
      <trkpt lat="43.843621" lon="1.543730">
        <ele>113.7</ele>
        <time>2014-03-15T14:17:31Z</time>
      </trkpt>
      <trkpt lat="43.843651" lon="1.543852">
        <ele>113.8</ele>
        <time>2014-03-15T14:17:40Z</time>
      </trkpt>
      <trkpt lat="43.843664" lon="1.543968">
        <ele>114.6</ele>
        <time>2014-03-15T14:18:02Z</time>
      </trkpt>
      <trkpt lat="43.843740" lon="1.544062">
        <ele>115.0</ele>
        <time>2014-03-15T14:18:12Z</time>
      </trkpt>
      <trkpt lat="43.843831" lon="1.544126">
        <ele>115.4</ele>
        <time>2014-03-15T14:18:20Z</time>
      </trkpt>
      <trkpt lat="43.843919" lon="1.544199">
        <ele>115.2</ele>
        <time>2014-03-15T14:18:29Z</time>
      </trkpt>
      <trkpt lat="43.843998" lon="1.544281">
        <ele>115.2</ele>
        <time>2014-03-15T14:18:38Z</time>
      </trkpt>
      <trkpt lat="43.844072" lon="1.544373">
        <ele>115.2</ele>
        <time>2014-03-15T14:18:46Z</time>
      </trkpt>
      <trkpt lat="43.844154" lon="1.544469">
        <ele>115.1</ele>
        <time>2014-03-15T14:18:55Z</time>
      </trkpt>
      <trkpt lat="43.844230" lon="1.544546">
        <ele>115.3</ele>
        <time>2014-03-15T14:19:03Z</time>
      </trkpt>
      <trkpt lat="43.844311" lon="1.544617">
        <ele>115.4</ele>
        <time>2014-03-15T14:19:11Z</time>
      </trkpt>
      <trkpt lat="43.844387" lon="1.544732">
        <ele>115.5</ele>
        <time>2014-03-15T14:19:20Z</time>
      </trkpt>
      <trkpt lat="43.844473" lon="1.544800">
        <ele>115.5</ele>
        <time>2014-03-15T14:19:28Z</time>
      </trkpt>
      <trkpt lat="43.844543" lon="1.544872">
        <ele>115.8</ele>
        <time>2014-03-15T14:19:35Z</time>
      </trkpt>
      <trkpt lat="43.844626" lon="1.544974">
        <ele>116.3</ele>
        <time>2014-03-15T14:19:43Z</time>
      </trkpt>
      <trkpt lat="43.844720" lon="1.545017">
        <ele>116.2</ele>
        <time>2014-03-15T14:19:50Z</time>
      </trkpt>
      <trkpt lat="43.844810" lon="1.545055">
        <ele>116.2</ele>
        <time>2014-03-15T14:19:57Z</time>
      </trkpt>
      <trkpt lat="43.844921" lon="1.545065">
        <ele>116.5</ele>
        <time>2014-03-15T14:20:06Z</time>
      </trkpt>
      <trkpt lat="43.845024" lon="1.545078">
        <ele>116.7</ele>
        <time>2014-03-15T14:20:13Z</time>
      </trkpt>
      <trkpt lat="43.845122" lon="1.545085">
        <ele>116.8</ele>
        <time>2014-03-15T14:20:21Z</time>
      </trkpt>
      <trkpt lat="43.845205" lon="1.545131">
        <ele>117.0</ele>
        <time>2014-03-15T14:20:29Z</time>
      </trkpt>
      <trkpt lat="43.845295" lon="1.545160">
        <ele>117.3</ele>
        <time>2014-03-15T14:20:38Z</time>
      </trkpt>
      <trkpt lat="43.845401" lon="1.545188">
        <ele>117.5</ele>
        <time>2014-03-15T14:20:46Z</time>
      </trkpt>
      <trkpt lat="43.845490" lon="1.545212">
        <ele>117.5</ele>
        <time>2014-03-15T14:20:54Z</time>
      </trkpt>
      <trkpt lat="43.845584" lon="1.545255">
        <ele>117.7</ele>
        <time>2014-03-15T14:21:02Z</time>
      </trkpt>
      <trkpt lat="43.845666" lon="1.545263">
        <ele>117.9</ele>
        <time>2014-03-15T14:21:08Z</time>
      </trkpt>
      <trkpt lat="43.845753" lon="1.545304">
        <ele>117.8</ele>
        <time>2014-03-15T14:21:17Z</time>
      </trkpt>
      <trkpt lat="43.845849" lon="1.545340">
        <ele>118.0</ele>
        <time>2014-03-15T14:21:26Z</time>
      </trkpt>
      <trkpt lat="43.845946" lon="1.545353">
        <ele>118.2</ele>
        <time>2014-03-15T14:21:33Z</time>
      </trkpt>
      <trkpt lat="43.846042" lon="1.545387">
        <ele>118.2</ele>
        <time>2014-03-15T14:21:42Z</time>
      </trkpt>
      <trkpt lat="43.846152" lon="1.545415">
        <ele>118.5</ele>
        <time>2014-03-15T14:21:50Z</time>
      </trkpt>
      <trkpt lat="43.846247" lon="1.545441">
        <ele>118.7</ele>
        <time>2014-03-15T14:21:58Z</time>
      </trkpt>
      <trkpt lat="43.846335" lon="1.545477">
        <ele>119.0</ele>
        <time>2014-03-15T14:22:06Z</time>
      </trkpt>
      <trkpt lat="43.846432" lon="1.545507">
        <ele>119.1</ele>
        <time>2014-03-15T14:22:15Z</time>
      </trkpt>
      <trkpt lat="43.846524" lon="1.545534">
        <ele>119.3</ele>
        <time>2014-03-15T14:22:23Z</time>
      </trkpt>
      <trkpt lat="43.846618" lon="1.545553">
        <ele>119.6</ele>
        <time>2014-03-15T14:22:30Z</time>
      </trkpt>
      <trkpt lat="43.846711" lon="1.545596">
        <ele>119.5</ele>
        <time>2014-03-15T14:22:38Z</time>
      </trkpt>
      <trkpt lat="43.846804" lon="1.545649">
        <ele>119.5</ele>
        <time>2014-03-15T14:22:47Z</time>
      </trkpt>
      <trkpt lat="43.846899" lon="1.545689">
        <ele>119.4</ele>
        <time>2014-03-15T14:22:55Z</time>
      </trkpt>
      <trkpt lat="43.846995" lon="1.545729">
        <ele>119.2</ele>
        <time>2014-03-15T14:23:03Z</time>
      </trkpt>
      <trkpt lat="43.847098" lon="1.545758">
        <ele>119.1</ele>
        <time>2014-03-15T14:23:12Z</time>
      </trkpt>
      <trkpt lat="43.847187" lon="1.545800">
        <ele>119.0</ele>
        <time>2014-03-15T14:23:20Z</time>
      </trkpt>
      <trkpt lat="43.847288" lon="1.545828">
        <ele>119.0</ele>
        <time>2014-03-15T14:23:29Z</time>
      </trkpt>
      <trkpt lat="43.847391" lon="1.545887">
        <ele>119.2</ele>
        <time>2014-03-15T14:23:38Z</time>
      </trkpt>
      <trkpt lat="43.847491" lon="1.545938">
        <ele>119.6</ele>
        <time>2014-03-15T14:23:47Z</time>
      </trkpt>
      <trkpt lat="43.847586" lon="1.545981">
        <ele>120.2</ele>
        <time>2014-03-15T14:23:56Z</time>
      </trkpt>
      <trkpt lat="43.847686" lon="1.546016">
        <ele>120.4</ele>
        <time>2014-03-15T14:24:04Z</time>
      </trkpt>
      <trkpt lat="43.847787" lon="1.546051">
        <ele>120.8</ele>
        <time>2014-03-15T14:24:13Z</time>
      </trkpt>
      <trkpt lat="43.847871" lon="1.546110">
        <ele>121.1</ele>
        <time>2014-03-15T14:24:22Z</time>
      </trkpt>
      <trkpt lat="43.847982" lon="1.546173">
        <ele>121.3</ele>
        <time>2014-03-15T14:24:33Z</time>
      </trkpt>
      <trkpt lat="43.848071" lon="1.546237">
        <ele>121.7</ele>
        <time>2014-03-15T14:24:42Z</time>
      </trkpt>
      <trkpt lat="43.848171" lon="1.546268">
        <ele>122.2</ele>
        <time>2014-03-15T14:24:50Z</time>
      </trkpt>
      <trkpt lat="43.848281" lon="1.546301">
        <ele>122.3</ele>
        <time>2014-03-15T14:24:59Z</time>
      </trkpt>
      <trkpt lat="43.848379" lon="1.546333">
        <ele>123.0</ele>
        <time>2014-03-15T14:25:06Z</time>
      </trkpt>
      <trkpt lat="43.848465" lon="1.546386">
        <ele>123.0</ele>
        <time>2014-03-15T14:25:14Z</time>
      </trkpt>
      <trkpt lat="43.848559" lon="1.546417">
        <ele>122.6</ele>
        <time>2014-03-15T14:25:22Z</time>
      </trkpt>
      <trkpt lat="43.848654" lon="1.546451">
        <ele>122.3</ele>
        <time>2014-03-15T14:25:30Z</time>
      </trkpt>
      <trkpt lat="43.848763" lon="1.546472">
        <ele>122.0</ele>
        <time>2014-03-15T14:25:38Z</time>
      </trkpt>
      <trkpt lat="43.848868" lon="1.546518">
        <ele>122.0</ele>
        <time>2014-03-15T14:25:47Z</time>
      </trkpt>
      <trkpt lat="43.848980" lon="1.546551">
        <ele>122.0</ele>
        <time>2014-03-15T14:25:56Z</time>
      </trkpt>
      <trkpt lat="43.849107" lon="1.546560">
        <ele>122.1</ele>
        <time>2014-03-15T14:26:05Z</time>
        <name>Chemin de Tire Crabe</name>
      </trkpt>
      <trkpt lat="43.849194" lon="1.546454">
        <ele>122.1</ele>
        <time>2014-03-15T14:26:13Z</time>
      </trkpt>
      <trkpt lat="43.849252" lon="1.546338">
        <ele>122.4</ele>
        <time>2014-03-15T14:26:20Z</time>
      </trkpt>
      <trkpt lat="43.849294" lon="1.546218">
        <ele>122.9</ele>
        <time>2014-03-15T14:26:27Z</time>
      </trkpt>
      <trkpt lat="43.849336" lon="1.546105">
        <ele>123.2</ele>
        <time>2014-03-15T14:26:35Z</time>
      </trkpt>
      <trkpt lat="43.849386" lon="1.545961">
        <ele>123.4</ele>
        <time>2014-03-15T14:26:42Z</time>
      </trkpt>
      <trkpt lat="43.849432" lon="1.545841">
        <ele>123.7</ele>
        <time>2014-03-15T14:26:49Z</time>
      </trkpt>
      <trkpt lat="43.849458" lon="1.545728">
        <ele>124.0</ele>
        <time>2014-03-15T14:26:56Z</time>
      </trkpt>
      <trkpt lat="43.849498" lon="1.545611">
        <ele>123.9</ele>
        <time>2014-03-15T14:27:04Z</time>
      </trkpt>
      <trkpt lat="43.849549" lon="1.545482">
        <ele>124.4</ele>
        <time>2014-03-15T14:27:12Z</time>
      </trkpt>
      <trkpt lat="43.849640" lon="1.545417">
        <ele>124.5</ele>
        <time>2014-03-15T14:27:26Z</time>
      </trkpt>
      <trkpt lat="43.849699" lon="1.545499">
        <ele>124.9</ele>
        <time>2014-03-15T14:27:35Z</time>
      </trkpt>
      <trkpt lat="43.849752" lon="1.545607">
        <ele>125.2</ele>
        <time>2014-03-15T14:27:44Z</time>
      </trkpt>
      <trkpt lat="43.849815" lon="1.545700">
        <ele>125.9</ele>
        <time>2014-03-15T14:28:12Z</time>
      </trkpt>
      <trkpt lat="43.849906" lon="1.545625">
        <ele>125.8</ele>
        <time>2014-03-15T14:28:43Z</time>
      </trkpt>
      <trkpt lat="43.849983" lon="1.545528">
        <ele>126.7</ele>
        <time>2014-03-15T14:28:55Z</time>
      </trkpt>
      <trkpt lat="43.850062" lon="1.545447">
        <ele>127.1</ele>
        <time>2014-03-15T14:29:04Z</time>
      </trkpt>
      <trkpt lat="43.850155" lon="1.545356">
        <ele>127.5</ele>
        <time>2014-03-15T14:29:13Z</time>
      </trkpt>
      <trkpt lat="43.850229" lon="1.545271">
        <ele>127.9</ele>
        <time>2014-03-15T14:29:21Z</time>
      </trkpt>
      <trkpt lat="43.850307" lon="1.545182">
        <ele>128.6</ele>
        <time>2014-03-15T14:29:30Z</time>
      </trkpt>
      <trkpt lat="43.850378" lon="1.545093">
        <ele>129.0</ele>
        <time>2014-03-15T14:29:38Z</time>
      </trkpt>
      <trkpt lat="43.850451" lon="1.545004">
        <ele>129.9</ele>
        <time>2014-03-15T14:29:46Z</time>
      </trkpt>
      <trkpt lat="43.850532" lon="1.544917">
        <ele>130.5</ele>
        <time>2014-03-15T14:29:54Z</time>
      </trkpt>
      <trkpt lat="43.850607" lon="1.544837">
        <ele>130.5</ele>
        <time>2014-03-15T14:30:02Z</time>
      </trkpt>
      <trkpt lat="43.850688" lon="1.544772">
        <ele>131.4</ele>
        <time>2014-03-15T14:30:11Z</time>
      </trkpt>
      <trkpt lat="43.850761" lon="1.544666">
        <ele>132.3</ele>
        <time>2014-03-15T14:30:20Z</time>
      </trkpt>
      <trkpt lat="43.850834" lon="1.544578">
        <ele>132.2</ele>
        <time>2014-03-15T14:30:28Z</time>
      </trkpt>
      <trkpt lat="43.850920" lon="1.544482">
        <ele>133.0</ele>
        <time>2014-03-15T14:30:38Z</time>
      </trkpt>
      <trkpt lat="43.851011" lon="1.544376">
        <ele>134.1</ele>
        <time>2014-03-15T14:30:48Z</time>
      </trkpt>
      <trkpt lat="43.851091" lon="1.544282">
        <ele>135.7</ele>
        <time>2014-03-15T14:30:59Z</time>
      </trkpt>
      <trkpt lat="43.851180" lon="1.544173">
        <ele>137.3</ele>
        <time>2014-03-15T14:31:10Z</time>
      </trkpt>
      <trkpt lat="43.851254" lon="1.544074">
        <ele>139.1</ele>
        <time>2014-03-15T14:31:21Z</time>
      </trkpt>
      <trkpt lat="43.851353" lon="1.543988">
        <ele>140.9</ele>
        <time>2014-03-15T14:31:33Z</time>
      </trkpt>
      <trkpt lat="43.851448" lon="1.543907">
        <ele>142.8</ele>
        <time>2014-03-15T14:31:44Z</time>
      </trkpt>
      <trkpt lat="43.851534" lon="1.543845">
        <ele>144.2</ele>
        <time>2014-03-15T14:31:53Z</time>
      </trkpt>
      <trkpt lat="43.851629" lon="1.543779">
        <ele>145.8</ele>
        <time>2014-03-15T14:32:04Z</time>
      </trkpt>
      <trkpt lat="43.851739" lon="1.543742">
        <ele>147.6</ele>
        <time>2014-03-15T14:32:16Z</time>
      </trkpt>
      <trkpt lat="43.851846" lon="1.543741">
        <ele>149.3</ele>
        <time>2014-03-15T14:32:27Z</time>
      </trkpt>
      <trkpt lat="43.851975" lon="1.543733">
        <ele>151.5</ele>
        <time>2014-03-15T14:32:39Z</time>
      </trkpt>
      <trkpt lat="43.852099" lon="1.543687">
        <ele>153.1</ele>
        <time>2014-03-15T14:32:50Z</time>
      </trkpt>
      <trkpt lat="43.852201" lon="1.543614">
        <ele>154.4</ele>
        <time>2014-03-15T14:33:00Z</time>
      </trkpt>
      <trkpt lat="43.852300" lon="1.543529">
        <ele>155.6</ele>
        <time>2014-03-15T14:33:09Z</time>
      </trkpt>
      <trkpt lat="43.852378" lon="1.543435">
        <ele>156.6</ele>
        <time>2014-03-15T14:33:18Z</time>
      </trkpt>
      <trkpt lat="43.852472" lon="1.543353">
        <ele>158.1</ele>
        <time>2014-03-15T14:33:29Z</time>
      </trkpt>
      <trkpt lat="43.852576" lon="1.543271">
        <ele>159.6</ele>
        <time>2014-03-15T14:33:41Z</time>
      </trkpt>
      <trkpt lat="43.852671" lon="1.543161">
        <ele>161.5</ele>
        <time>2014-03-15T14:33:52Z</time>
        <name>Bifurcation</name>
      </trkpt>
      <trkpt lat="43.852805" lon="1.543372">
        <ele>154.0</ele>
        <time>2014-03-15T14:34:03Z</time>
      </trkpt>
      <trkpt lat="43.853004" lon="1.543601">
        <ele>151.7</ele>
        <time>2014-03-15T14:34:14Z</time>
      </trkpt>
      <trkpt lat="43.853273" lon="1.543688">
        <ele>150.2</ele>
        <time>2014-03-15T14:34:24Z</time>
      </trkpt>
      <trkpt lat="43.853547" lon="1.543576">
        <ele>147.7</ele>
        <time>2014-03-15T14:34:33Z</time>
      </trkpt>
      <trkpt lat="43.853748" lon="1.543389">
        <ele>146.1</ele>
        <time>2014-03-15T14:34:43Z</time>
      </trkpt>
      <trkpt lat="43.853946" lon="1.543252">
        <ele>144.7</ele>
        <time>2014-03-15T14:34:53Z</time>
      </trkpt>
      <trkpt lat="43.854161" lon="1.543066">
        <ele>143.7</ele>
        <time>2014-03-15T14:35:04Z</time>
      </trkpt>
      <trkpt lat="43.854399" lon="1.542836">
        <ele>143.5</ele>
        <time>2014-03-15T14:35:15Z</time>
      </trkpt>
      <trkpt lat="43.854551" lon="1.542674">
        <ele>143.3</ele>
        <time>2014-03-15T14:35:28Z</time>
      </trkpt>
      <trkpt lat="43.854668" lon="1.542450">
        <ele>144.6</ele>
        <time>2014-03-15T14:35:40Z</time>
      </trkpt>
      <trkpt lat="43.854735" lon="1.542338">
        <ele>145.3</ele>
        <time>2014-03-15T14:42:54Z</time>
      </trkpt>
      <trkpt lat="43.854802" lon="1.542140">
        <ele>147.2</ele>
        <time>2014-03-15T14:43:10Z</time>
      </trkpt>
      <trkpt lat="43.854865" lon="1.541990">
        <ele>148.3</ele>
        <time>2014-03-15T14:43:34Z</time>
      </trkpt>
      <trkpt lat="43.854937" lon="1.541841">
        <ele>149.5</ele>
        <time>2014-03-15T14:43:57Z</time>
      </trkpt>
      <trkpt lat="43.855009" lon="1.541689">
        <ele>160.9</ele>
        <time>2014-03-15T14:44:14Z</time>
      </trkpt>
      <trkpt lat="43.855151" lon="1.541577">
        <ele>160.8</ele>
        <time>2014-03-15T14:44:34Z</time>
      </trkpt>
      <trkpt lat="43.855258" lon="1.541455">
        <ele>161.3</ele>
        <time>2014-03-15T14:44:49Z</time>
      </trkpt>
      <trkpt lat="43.855357" lon="1.541317">
        <ele>161.6</ele>
        <time>2014-03-15T14:45:01Z</time>
      </trkpt>
      <trkpt lat="43.855465" lon="1.541187">
        <ele>161.9</ele>
        <time>2014-03-15T14:45:12Z</time>
      </trkpt>
      <trkpt lat="43.855549" lon="1.541050">
        <ele>162.4</ele>
        <time>2014-03-15T14:45:22Z</time>
      </trkpt>
      <trkpt lat="43.855644" lon="1.540882">
        <ele>163.8</ele>
        <time>2014-03-15T14:45:33Z</time>
      </trkpt>
      <trkpt lat="43.855683" lon="1.540693">
        <ele>164.6</ele>
        <time>2014-03-15T14:45:45Z</time>
      </trkpt>
      <trkpt lat="43.855719" lon="1.540522">
        <ele>165.8</ele>
        <time>2014-03-15T14:45:57Z</time>
      </trkpt>
      <trkpt lat="43.855767" lon="1.540292">
        <ele>165.4</ele>
        <time>2014-03-15T14:46:09Z</time>
      </trkpt>
      <trkpt lat="43.855883" lon="1.540172">
        <ele>165.1</ele>
        <time>2014-03-15T14:46:21Z</time>
      </trkpt>
      <trkpt lat="43.856026" lon="1.540138">
        <ele>165.4</ele>
        <time>2014-03-15T14:46:34Z</time>
      </trkpt>
      <trkpt lat="43.856152" lon="1.540077">
        <ele>166.0</ele>
        <time>2014-03-15T14:46:45Z</time>
      </trkpt>
      <trkpt lat="43.856261" lon="1.540041">
        <ele>167.5</ele>
        <time>2014-03-15T14:46:58Z</time>
      </trkpt>
      <trkpt lat="43.856356" lon="1.539949">
        <ele>168.1</ele>
        <time>2014-03-15T14:47:10Z</time>
      </trkpt>
      <trkpt lat="43.856493" lon="1.539818">
        <ele>168.5</ele>
        <time>2014-03-15T14:47:23Z</time>
      </trkpt>
      <trkpt lat="43.856606" lon="1.539692">
        <ele>168.4</ele>
        <time>2014-03-15T14:47:33Z</time>
      </trkpt>
      <trkpt lat="43.856681" lon="1.539574">
        <ele>168.6</ele>
        <time>2014-03-15T14:47:42Z</time>
      </trkpt>
      <trkpt lat="43.856750" lon="1.539451">
        <ele>168.3</ele>
        <time>2014-03-15T14:47:51Z</time>
      </trkpt>
      <trkpt lat="43.856805" lon="1.539375">
        <ele>168.0</ele>
        <time>2014-03-15T14:48:09Z</time>
      </trkpt>
      <trkpt lat="43.856849" lon="1.539335">
        <ele>168.2</ele>
        <time>2014-03-15T14:48:46Z</time>
      </trkpt>
      <trkpt lat="43.856904" lon="1.539292">
        <ele>168.3</ele>
        <time>2014-03-15T14:49:55Z</time>
      </trkpt>
      <trkpt lat="43.856947" lon="1.539186">
        <ele>168.2</ele>
        <time>2014-03-15T14:50:14Z</time>
      </trkpt>
      <trkpt lat="43.856976" lon="1.539044">
        <ele>167.3</ele>
        <time>2014-03-15T14:50:26Z</time>
      </trkpt>
      <trkpt lat="43.857045" lon="1.538909">
        <ele>165.7</ele>
        <time>2014-03-15T14:50:40Z</time>
      </trkpt>
      <trkpt lat="43.857118" lon="1.538767">
        <ele>164.8</ele>
        <time>2014-03-15T14:50:53Z</time>
      </trkpt>
      <trkpt lat="43.857245" lon="1.538674">
        <ele>163.6</ele>
        <time>2014-03-15T14:51:11Z</time>
      </trkpt>
      <trkpt lat="43.857370" lon="1.538718">
        <ele>163.1</ele>
        <time>2014-03-15T14:51:23Z</time>
      </trkpt>
      <trkpt lat="43.857487" lon="1.538803">
        <ele>163.8</ele>
        <time>2014-03-15T14:51:33Z</time>
      </trkpt>
      <trkpt lat="43.857627" lon="1.538822">
        <ele>163.9</ele>
        <time>2014-03-15T14:51:43Z</time>
      </trkpt>
      <trkpt lat="43.857748" lon="1.538779">
        <ele>165.4</ele>
        <time>2014-03-15T14:51:53Z</time>
      </trkpt>
      <trkpt lat="43.857851" lon="1.538661">
        <ele>166.4</ele>
        <time>2014-03-15T14:52:03Z</time>
      </trkpt>
      <trkpt lat="43.857933" lon="1.538537">
        <ele>167.0</ele>
        <time>2014-03-15T14:52:13Z</time>
      </trkpt>
      <trkpt lat="43.858084" lon="1.538408">
        <ele>167.4</ele>
        <time>2014-03-15T14:52:25Z</time>
      </trkpt>
      <trkpt lat="43.858171" lon="1.538278">
        <ele>168.2</ele>
        <time>2014-03-15T14:52:40Z</time>
      </trkpt>
      <trkpt lat="43.858289" lon="1.538130">
        <ele>168.9</ele>
        <time>2014-03-15T14:52:52Z</time>
      </trkpt>
      <trkpt lat="43.858427" lon="1.538008">
        <ele>169.1</ele>
        <time>2014-03-15T14:53:03Z</time>
      </trkpt>
      <trkpt lat="43.858541" lon="1.537866">
        <ele>169.1</ele>
        <time>2014-03-15T14:53:14Z</time>
      </trkpt>
      <trkpt lat="43.858636" lon="1.537741">
        <ele>169.4</ele>
        <time>2014-03-15T14:53:28Z</time>
      </trkpt>
      <trkpt lat="43.858721" lon="1.537549">
        <ele>169.2</ele>
        <time>2014-03-15T14:53:40Z</time>
      </trkpt>
      <trkpt lat="43.858836" lon="1.537418">
        <ele>168.4</ele>
        <time>2014-03-15T14:53:53Z</time>
      </trkpt>
      <trkpt lat="43.858912" lon="1.537240">
        <ele>167.8</ele>
        <time>2014-03-15T14:54:04Z</time>
      </trkpt>
      <trkpt lat="43.859029" lon="1.537125">
        <ele>167.6</ele>
        <time>2014-03-15T14:54:18Z</time>
      </trkpt>
      <trkpt lat="43.859142" lon="1.537027">
        <ele>168.1</ele>
        <time>2014-03-15T14:54:31Z</time>
      </trkpt>
      <trkpt lat="43.859243" lon="1.536892">
        <ele>168.1</ele>
        <time>2014-03-15T14:54:42Z</time>
      </trkpt>
      <trkpt lat="43.859372" lon="1.536771">
        <ele>168.5</ele>
        <time>2014-03-15T14:54:53Z</time>
      </trkpt>
      <trkpt lat="43.859486" lon="1.536689">
        <ele>169.1</ele>
        <time>2014-03-15T14:55:05Z</time>
      </trkpt>
      <trkpt lat="43.859574" lon="1.536602">
        <ele>170.3</ele>
        <time>2014-03-15T14:55:17Z</time>
      </trkpt>
      <trkpt lat="43.859676" lon="1.536491">
        <ele>171.4</ele>
        <time>2014-03-15T14:55:28Z</time>
      </trkpt>
      <trkpt lat="43.859748" lon="1.536351">
        <ele>171.7</ele>
        <time>2014-03-15T14:55:41Z</time>
      </trkpt>
      <trkpt lat="43.859790" lon="1.536181">
        <ele>172.1</ele>
        <time>2014-03-15T14:55:51Z</time>
      </trkpt>
      <trkpt lat="43.859843" lon="1.536026">
        <ele>172.2</ele>
        <time>2014-03-15T14:56:03Z</time>
      </trkpt>
      <trkpt lat="43.859930" lon="1.535886">
        <ele>172.1</ele>
        <time>2014-03-15T14:56:14Z</time>
      </trkpt>
      <trkpt lat="43.860023" lon="1.535729">
        <ele>172.4</ele>
        <time>2014-03-15T14:56:28Z</time>
      </trkpt>
      <trkpt lat="43.860113" lon="1.535589">
        <ele>173.0</ele>
        <time>2014-03-15T14:56:41Z</time>
      </trkpt>
      <trkpt lat="43.860246" lon="1.535411">
        <ele>173.6</ele>
        <time>2014-03-15T14:56:55Z</time>
      </trkpt>
      <trkpt lat="43.860377" lon="1.535476">
        <ele>175.5</ele>
        <time>2014-03-15T14:57:12Z</time>
      </trkpt>
      <trkpt lat="43.860487" lon="1.535542">
        <ele>177.1</ele>
        <time>2014-03-15T14:57:24Z</time>
      </trkpt>
      <trkpt lat="43.860596" lon="1.535623">
        <ele>178.3</ele>
        <time>2014-03-15T14:57:36Z</time>
      </trkpt>
      <trkpt lat="43.860702" lon="1.535723">
        <ele>180.0</ele>
        <time>2014-03-15T14:57:47Z</time>
      </trkpt>
      <trkpt lat="43.860846" lon="1.535670">
        <ele>181.1</ele>
        <time>2014-03-15T14:58:01Z</time>
      </trkpt>
      <trkpt lat="43.860951" lon="1.535571">
        <ele>181.7</ele>
        <time>2014-03-15T14:58:11Z</time>
      </trkpt>
      <trkpt lat="43.861048" lon="1.535425">
        <ele>182.2</ele>
        <time>2014-03-15T14:58:22Z</time>
      </trkpt>
      <trkpt lat="43.861106" lon="1.535300">
        <ele>182.7</ele>
        <time>2014-03-15T14:58:32Z</time>
      </trkpt>
      <trkpt lat="43.861159" lon="1.535170">
        <ele>183.4</ele>
        <time>2014-03-15T14:58:43Z</time>
      </trkpt>
      <trkpt lat="43.861203" lon="1.534988">
        <ele>184.7</ele>
        <time>2014-03-15T14:58:56Z</time>
      </trkpt>
      <trkpt lat="43.861267" lon="1.534806">
        <ele>186.0</ele>
        <time>2014-03-15T14:59:08Z</time>
      </trkpt>
      <trkpt lat="43.861301" lon="1.534607">
        <ele>187.4</ele>
        <time>2014-03-15T14:59:22Z</time>
      </trkpt>
      <trkpt lat="43.861346" lon="1.534418">
        <ele>189.3</ele>
        <time>2014-03-15T14:59:36Z</time>
      </trkpt>
      <trkpt lat="43.861376" lon="1.534197">
        <ele>190.9</ele>
        <time>2014-03-15T14:59:50Z</time>
      </trkpt>
      <trkpt lat="43.861395" lon="1.533990">
        <ele>192.0</ele>
        <time>2014-03-15T15:00:04Z</time>
      </trkpt>
      <trkpt lat="43.861376" lon="1.533793">
        <ele>193.4</ele>
        <time>2014-03-15T15:00:19Z</time>
      </trkpt>
      <trkpt lat="43.861409" lon="1.533585">
        <ele>195.0</ele>
        <time>2014-03-15T15:00:35Z</time>
      </trkpt>
      <trkpt lat="43.861454" lon="1.533403">
        <ele>196.4</ele>
        <time>2014-03-15T15:00:48Z</time>
      </trkpt>
      <trkpt lat="43.861480" lon="1.533220">
        <ele>198.0</ele>
        <time>2014-03-15T15:01:01Z</time>
      </trkpt>
      <trkpt lat="43.861523" lon="1.533021">
        <ele>199.6</ele>
        <time>2014-03-15T15:01:16Z</time>
      </trkpt>
      <trkpt lat="43.861541" lon="1.532824">
        <ele>201.6</ele>
        <time>2014-03-15T15:01:32Z</time>
      </trkpt>
      <trkpt lat="43.861567" lon="1.532609">
        <ele>203.7</ele>
        <time>2014-03-15T15:01:47Z</time>
      </trkpt>
      <trkpt lat="43.861631" lon="1.532413">
        <ele>205.8</ele>
        <time>2014-03-15T15:02:04Z</time>
      </trkpt>
      <trkpt lat="43.861693" lon="1.532181">
        <ele>208.4</ele>
        <time>2014-03-15T15:02:23Z</time>
      </trkpt>
      <trkpt lat="43.861799" lon="1.531978">
        <ele>210.9</ele>
        <time>2014-03-15T15:02:39Z</time>
      </trkpt>
      <trkpt lat="43.861910" lon="1.531881">
        <ele>212.8</ele>
        <time>2014-03-15T15:02:54Z</time>
      </trkpt>
      <trkpt lat="43.862030" lon="1.531779">
        <ele>213.7</ele>
        <time>2014-03-15T15:03:08Z</time>
      </trkpt>
      <trkpt lat="43.862140" lon="1.531628">
        <ele>214.1</ele>
        <time>2014-03-15T15:03:20Z</time>
      </trkpt>
      <trkpt lat="43.862227" lon="1.531474">
        <ele>214.2</ele>
        <time>2014-03-15T15:03:32Z</time>
      </trkpt>
      <trkpt lat="43.862312" lon="1.531364">
        <ele>214.2</ele>
        <time>2014-03-15T15:03:40Z</time>
      </trkpt>
      <trkpt lat="43.862403" lon="1.531238">
        <ele>214.8</ele>
        <time>2014-03-15T15:03:50Z</time>
      </trkpt>
      <trkpt lat="43.862489" lon="1.531144">
        <ele>215.7</ele>
        <time>2014-03-15T15:04:00Z</time>
      </trkpt>
      <trkpt lat="43.862578" lon="1.531064">
        <ele>215.5</ele>
        <time>2014-03-15T15:04:11Z</time>
      </trkpt>
      <trkpt lat="43.862647" lon="1.530957">
        <ele>215.5</ele>
        <time>2014-03-15T15:04:20Z</time>
      </trkpt>
      <trkpt lat="43.862722" lon="1.530868">
        <ele>214.7</ele>
        <time>2014-03-15T15:04:30Z</time>
      </trkpt>
      <trkpt lat="43.862804" lon="1.530747">
        <ele>214.6</ele>
        <time>2014-03-15T15:04:41Z</time>
      </trkpt>
      <trkpt lat="43.862891" lon="1.530632">
        <ele>214.4</ele>
        <time>2014-03-15T15:04:51Z</time>
      </trkpt>
      <trkpt lat="43.862953" lon="1.530515">
        <ele>214.7</ele>
        <time>2014-03-15T15:05:01Z</time>
      </trkpt>
      <trkpt lat="43.863011" lon="1.530401">
        <ele>214.4</ele>
        <time>2014-03-15T15:05:11Z</time>
      </trkpt>
      <trkpt lat="43.863071" lon="1.530289">
        <ele>214.2</ele>
        <time>2014-03-15T15:05:21Z</time>
      </trkpt>
      <trkpt lat="43.863135" lon="1.530168">
        <ele>213.9</ele>
        <time>2014-03-15T15:05:33Z</time>
      </trkpt>
      <trkpt lat="43.863174" lon="1.530008">
        <ele>213.9</ele>
        <time>2014-03-15T15:05:45Z</time>
      </trkpt>
      <trkpt lat="43.863220" lon="1.529860">
        <ele>214.4</ele>
        <time>2014-03-15T15:05:53Z</time>
      </trkpt>
      <trkpt lat="43.863273" lon="1.529712">
        <ele>214.9</ele>
        <time>2014-03-15T15:06:02Z</time>
      </trkpt>
      <trkpt lat="43.863328" lon="1.529587">
        <ele>215.4</ele>
        <time>2014-03-15T15:06:10Z</time>
      </trkpt>
      <trkpt lat="43.863369" lon="1.529462">
        <ele>215.8</ele>
        <time>2014-03-15T15:06:19Z</time>
      </trkpt>
      <trkpt lat="43.863423" lon="1.529336">
        <ele>215.8</ele>
        <time>2014-03-15T15:06:28Z</time>
      </trkpt>
      <trkpt lat="43.863457" lon="1.529212">
        <ele>215.8</ele>
        <time>2014-03-15T15:06:36Z</time>
      </trkpt>
      <trkpt lat="43.863485" lon="1.529088">
        <ele>215.4</ele>
        <time>2014-03-15T15:06:45Z</time>
      </trkpt>
      <trkpt lat="43.863504" lon="1.528974">
        <ele>215.1</ele>
        <time>2014-03-15T15:06:53Z</time>
      </trkpt>
      <trkpt lat="43.863529" lon="1.528866">
        <ele>214.9</ele>
        <time>2014-03-15T15:07:01Z</time>
      </trkpt>
      <trkpt lat="43.863557" lon="1.528738">
        <ele>215.1</ele>
        <time>2014-03-15T15:07:09Z</time>
      </trkpt>
      <trkpt lat="43.863579" lon="1.528620">
        <ele>214.8</ele>
        <time>2014-03-15T15:07:17Z</time>
      </trkpt>
      <trkpt lat="43.863596" lon="1.528489">
        <ele>213.8</ele>
        <time>2014-03-15T15:07:26Z</time>
      </trkpt>
      <trkpt lat="43.863627" lon="1.528370">
        <ele>213.8</ele>
        <time>2014-03-15T15:07:34Z</time>
      </trkpt>
      <trkpt lat="43.863647" lon="1.528244">
        <ele>214.5</ele>
        <time>2014-03-15T15:07:43Z</time>
      </trkpt>
      <trkpt lat="43.863672" lon="1.528119">
        <ele>214.7</ele>
        <time>2014-03-15T15:07:51Z</time>
      </trkpt>
      <trkpt lat="43.863714" lon="1.527988">
        <ele>213.9</ele>
        <time>2014-03-15T15:07:59Z</time>
      </trkpt>
      <trkpt lat="43.863737" lon="1.527863">
        <ele>214.2</ele>
        <time>2014-03-15T15:08:07Z</time>
      </trkpt>
      <trkpt lat="43.863754" lon="1.527732">
        <ele>213.9</ele>
        <time>2014-03-15T15:08:15Z</time>
      </trkpt>
      <trkpt lat="43.863794" lon="1.527621">
        <ele>213.4</ele>
        <time>2014-03-15T15:08:22Z</time>
      </trkpt>
      <trkpt lat="43.863814" lon="1.527486">
        <ele>212.8</ele>
        <time>2014-03-15T15:08:30Z</time>
      </trkpt>
      <trkpt lat="43.863844" lon="1.527359">
        <ele>212.1</ele>
        <time>2014-03-15T15:08:38Z</time>
      </trkpt>
      <trkpt lat="43.863879" lon="1.527246">
        <ele>211.6</ele>
        <time>2014-03-15T15:08:45Z</time>
      </trkpt>
      <trkpt lat="43.863912" lon="1.527131">
        <ele>211.3</ele>
        <time>2014-03-15T15:08:52Z</time>
      </trkpt>
      <trkpt lat="43.863943" lon="1.527012">
        <ele>211.3</ele>
        <time>2014-03-15T15:08:59Z</time>
      </trkpt>
      <trkpt lat="43.863897" lon="1.526908">
        <ele>211.2</ele>
        <time>2014-03-15T15:09:08Z</time>
      </trkpt>
      <trkpt lat="43.863793" lon="1.526921">
        <ele>210.9</ele>
        <time>2014-03-15T15:09:16Z</time>
      </trkpt>
      <trkpt lat="43.863689" lon="1.526941">
        <ele>210.9</ele>
        <time>2014-03-15T15:09:24Z</time>
      </trkpt>
      <trkpt lat="43.863597" lon="1.526964">
        <ele>211.4</ele>
        <time>2014-03-15T15:09:32Z</time>
      </trkpt>
      <trkpt lat="43.863503" lon="1.526987">
        <ele>212.3</ele>
        <time>2014-03-15T15:09:41Z</time>
      </trkpt>
      <trkpt lat="43.863421" lon="1.526935">
        <ele>212.0</ele>
        <time>2014-03-15T15:09:53Z</time>
      </trkpt>
      <trkpt lat="43.863345" lon="1.527004">
        <ele>212.1</ele>
        <time>2014-03-15T15:10:02Z</time>
      </trkpt>
      <trkpt lat="43.863243" lon="1.527031">
        <ele>212.3</ele>
        <time>2014-03-15T15:10:10Z</time>
      </trkpt>
      <trkpt lat="43.863146" lon="1.527045">
        <ele>212.5</ele>
        <time>2014-03-15T15:10:19Z</time>
      </trkpt>
      <trkpt lat="43.863053" lon="1.527059">
        <ele>212.8</ele>
        <time>2014-03-15T15:10:26Z</time>
      </trkpt>
      <trkpt lat="43.862958" lon="1.527061">
        <ele>212.8</ele>
        <time>2014-03-15T15:10:35Z</time>
      </trkpt>
      <trkpt lat="43.862872" lon="1.527063">
        <ele>212.4</ele>
        <time>2014-03-15T15:10:42Z</time>
      </trkpt>
      <trkpt lat="43.862777" lon="1.527060">
        <ele>212.1</ele>
        <time>2014-03-15T15:10:51Z</time>
      </trkpt>
      <trkpt lat="43.862675" lon="1.527077">
        <ele>212.0</ele>
        <time>2014-03-15T15:11:00Z</time>
      </trkpt>
      <trkpt lat="43.862563" lon="1.527087">
        <ele>212.1</ele>
        <time>2014-03-15T15:11:08Z</time>
      </trkpt>
      <trkpt lat="43.862463" lon="1.527086">
        <ele>212.4</ele>
        <time>2014-03-15T15:11:15Z</time>
      </trkpt>
      <trkpt lat="43.862360" lon="1.527074">
        <ele>212.6</ele>
        <time>2014-03-15T15:11:24Z</time>
      </trkpt>
      <trkpt lat="43.862259" lon="1.527094">
        <ele>212.3</ele>
        <time>2014-03-15T15:11:32Z</time>
      </trkpt>
      <trkpt lat="43.862159" lon="1.527100">
        <ele>212.5</ele>
        <time>2014-03-15T15:11:40Z</time>
      </trkpt>
      <trkpt lat="43.862064" lon="1.527116">
        <ele>212.7</ele>
        <time>2014-03-15T15:11:48Z</time>
      </trkpt>
      <trkpt lat="43.861972" lon="1.527129">
        <ele>213.1</ele>
        <time>2014-03-15T15:11:56Z</time>
      </trkpt>
      <trkpt lat="43.861880" lon="1.527134">
        <ele>213.5</ele>
        <time>2014-03-15T15:12:04Z</time>
      </trkpt>
      <trkpt lat="43.861777" lon="1.527147">
        <ele>213.7</ele>
        <time>2014-03-15T15:12:13Z</time>
      </trkpt>
      <trkpt lat="43.861685" lon="1.527115">
        <ele>213.9</ele>
        <time>2014-03-15T15:12:21Z</time>
      </trkpt>
      <trkpt lat="43.861609" lon="1.527043">
        <ele>213.8</ele>
        <time>2014-03-15T15:12:30Z</time>
      </trkpt>
      <trkpt lat="43.861561" lon="1.526932">
        <ele>214.3</ele>
        <time>2014-03-15T15:12:38Z</time>
      </trkpt>
      <trkpt lat="43.861535" lon="1.526784">
        <ele>214.1</ele>
        <time>2014-03-15T15:12:47Z</time>
      </trkpt>
      <trkpt lat="43.861504" lon="1.526649">
        <ele>214.8</ele>
        <time>2014-03-15T15:12:54Z</time>
      </trkpt>
      <trkpt lat="43.861467" lon="1.526518">
        <ele>215.0</ele>
        <time>2014-03-15T15:13:02Z</time>
      </trkpt>
      <trkpt lat="43.861395" lon="1.526444">
        <ele>214.8</ele>
        <time>2014-03-15T15:13:10Z</time>
      </trkpt>
      <trkpt lat="43.861319" lon="1.526363">
        <ele>214.0</ele>
        <time>2014-03-15T15:13:18Z</time>
      </trkpt>
      <trkpt lat="43.861235" lon="1.526330">
        <ele>214.0</ele>
        <time>2014-03-15T15:13:25Z</time>
      </trkpt>
      <trkpt lat="43.861146" lon="1.526297">
        <ele>213.0</ele>
        <time>2014-03-15T15:13:33Z</time>
      </trkpt>
      <trkpt lat="43.861052" lon="1.526266">
        <ele>212.1</ele>
        <time>2014-03-15T15:13:41Z</time>
      </trkpt>
      <trkpt lat="43.860953" lon="1.526238">
        <ele>211.6</ele>
        <time>2014-03-15T15:13:49Z</time>
      </trkpt>
      <trkpt lat="43.860851" lon="1.526211">
        <ele>210.7</ele>
        <time>2014-03-15T15:13:58Z</time>
      </trkpt>
      <trkpt lat="43.860749" lon="1.526182">
        <ele>210.2</ele>
        <time>2014-03-15T15:14:06Z</time>
      </trkpt>
      <trkpt lat="43.860656" lon="1.526162">
        <ele>209.9</ele>
        <time>2014-03-15T15:14:14Z</time>
      </trkpt>
      <trkpt lat="43.860554" lon="1.526131">
        <ele>209.4</ele>
        <time>2014-03-15T15:14:23Z</time>
      </trkpt>
      <trkpt lat="43.860466" lon="1.526112">
        <ele>209.1</ele>
        <time>2014-03-15T15:14:30Z</time>
      </trkpt>
      <trkpt lat="43.860363" lon="1.526083">
        <ele>208.9</ele>
        <time>2014-03-15T15:14:40Z</time>
      </trkpt>
      <trkpt lat="43.860262" lon="1.526064">
        <ele>208.4</ele>
        <time>2014-03-15T15:14:47Z</time>
      </trkpt>
      <trkpt lat="43.860163" lon="1.526039">
        <ele>207.8</ele>
        <time>2014-03-15T15:14:56Z</time>
      </trkpt>
      <trkpt lat="43.860041" lon="1.526029">
        <ele>207.4</ele>
        <time>2014-03-15T15:15:04Z</time>
      </trkpt>
      <trkpt lat="43.859944" lon="1.526024">
        <ele>206.9</ele>
        <time>2014-03-15T15:15:12Z</time>
      </trkpt>
      <trkpt lat="43.859848" lon="1.526031">
        <ele>207.4</ele>
        <time>2014-03-15T15:15:20Z</time>
      </trkpt>
      <trkpt lat="43.859748" lon="1.526055">
        <ele>207.4</ele>
        <time>2014-03-15T15:15:29Z</time>
      </trkpt>
      <trkpt lat="43.859643" lon="1.526066">
        <ele>207.0</ele>
        <time>2014-03-15T15:15:38Z</time>
      </trkpt>
      <trkpt lat="43.859544" lon="1.526090">
        <ele>206.3</ele>
        <time>2014-03-15T15:15:46Z</time>
      </trkpt>
      <trkpt lat="43.859442" lon="1.526107">
        <ele>206.2</ele>
        <time>2014-03-15T15:15:54Z</time>
      </trkpt>
      <trkpt lat="43.859348" lon="1.526119">
        <ele>206.0</ele>
        <time>2014-03-15T15:16:02Z</time>
      </trkpt>
      <trkpt lat="43.859252" lon="1.526141">
        <ele>205.7</ele>
        <time>2014-03-15T15:16:10Z</time>
      </trkpt>
      <trkpt lat="43.859149" lon="1.526175">
        <ele>205.7</ele>
        <time>2014-03-15T15:16:18Z</time>
      </trkpt>
      <trkpt lat="43.859055" lon="1.526219">
        <ele>206.5</ele>
        <time>2014-03-15T15:16:26Z</time>
      </trkpt>
      <trkpt lat="43.858964" lon="1.526264">
        <ele>206.3</ele>
        <time>2014-03-15T15:16:34Z</time>
      </trkpt>
      <trkpt lat="43.858883" lon="1.526318">
        <ele>206.3</ele>
        <time>2014-03-15T15:16:42Z</time>
      </trkpt>
      <trkpt lat="43.858791" lon="1.526378">
        <ele>206.1</ele>
        <time>2014-03-15T15:16:50Z</time>
      </trkpt>
      <trkpt lat="43.858697" lon="1.526434">
        <ele>205.9</ele>
        <time>2014-03-15T15:16:58Z</time>
      </trkpt>
      <trkpt lat="43.858604" lon="1.526476">
        <ele>205.7</ele>
        <time>2014-03-15T15:17:09Z</time>
      </trkpt>
      <trkpt lat="43.858518" lon="1.526530">
        <ele>205.9</ele>
        <time>2014-03-15T15:17:16Z</time>
      </trkpt>
      <trkpt lat="43.858429" lon="1.526558">
        <ele>205.8</ele>
        <time>2014-03-15T15:17:24Z</time>
      </trkpt>
      <trkpt lat="43.858329" lon="1.526574">
        <ele>205.3</ele>
        <time>2014-03-15T15:17:32Z</time>
      </trkpt>
      <trkpt lat="43.858239" lon="1.526571">
        <ele>205.5</ele>
        <time>2014-03-15T15:17:39Z</time>
      </trkpt>
      <trkpt lat="43.858143" lon="1.526548">
        <ele>205.4</ele>
        <time>2014-03-15T15:17:47Z</time>
      </trkpt>
      <trkpt lat="43.858053" lon="1.526515">
        <ele>205.4</ele>
        <time>2014-03-15T15:17:56Z</time>
      </trkpt>
      <trkpt lat="43.857950" lon="1.526433">
        <ele>205.3</ele>
        <time>2014-03-15T15:18:05Z</time>
      </trkpt>
      <trkpt lat="43.857846" lon="1.526388">
        <ele>204.6</ele>
        <time>2014-03-15T15:18:13Z</time>
      </trkpt>
      <trkpt lat="43.857755" lon="1.526353">
        <ele>204.1</ele>
        <time>2014-03-15T15:18:22Z</time>
      </trkpt>
      <trkpt lat="43.857660" lon="1.526323">
        <ele>203.2</ele>
        <time>2014-03-15T15:18:30Z</time>
      </trkpt>
      <trkpt lat="43.857578" lon="1.526285">
        <ele>202.6</ele>
        <time>2014-03-15T15:18:37Z</time>
      </trkpt>
      <trkpt lat="43.857489" lon="1.526249">
        <ele>202.0</ele>
        <time>2014-03-15T15:18:44Z</time>
      </trkpt>
      <trkpt lat="43.857400" lon="1.526220">
        <ele>201.1</ele>
        <time>2014-03-15T15:18:51Z</time>
      </trkpt>
      <trkpt lat="43.857311" lon="1.526223">
        <ele>200.6</ele>
        <time>2014-03-15T15:18:58Z</time>
      </trkpt>
      <trkpt lat="43.857213" lon="1.526193">
        <ele>200.6</ele>
        <time>2014-03-15T15:19:06Z</time>
      </trkpt>
      <trkpt lat="43.857123" lon="1.526165">
        <ele>200.0</ele>
        <time>2014-03-15T15:19:13Z</time>
      </trkpt>
      <trkpt lat="43.857023" lon="1.526148">
        <ele>200.0</ele>
        <time>2014-03-15T15:19:21Z</time>
      </trkpt>
      <trkpt lat="43.856930" lon="1.526122">
        <ele>200.0</ele>
        <time>2014-03-15T15:19:28Z</time>
      </trkpt>
      <trkpt lat="43.856834" lon="1.526080">
        <ele>200.0</ele>
        <time>2014-03-15T15:19:36Z</time>
      </trkpt>
      <trkpt lat="43.856744" lon="1.526044">
        <ele>199.4</ele>
        <time>2014-03-15T15:19:44Z</time>
      </trkpt>
      <trkpt lat="43.856653" lon="1.525986">
        <ele>199.0</ele>
        <time>2014-03-15T15:19:52Z</time>
      </trkpt>
      <trkpt lat="43.856568" lon="1.525905">
        <ele>198.8</ele>
        <time>2014-03-15T15:20:01Z</time>
      </trkpt>
      <trkpt lat="43.856495" lon="1.525819">
        <ele>198.5</ele>
        <time>2014-03-15T15:20:14Z</time>
      </trkpt>
      <trkpt lat="43.856409" lon="1.525727">
        <ele>198.7</ele>
        <time>2014-03-15T15:20:23Z</time>
      </trkpt>
      <trkpt lat="43.856333" lon="1.525639">
        <ele>198.2</ele>
        <time>2014-03-15T15:20:31Z</time>
      </trkpt>
      <trkpt lat="43.856258" lon="1.525547">
        <ele>198.9</ele>
        <time>2014-03-15T15:20:40Z</time>
      </trkpt>
      <trkpt lat="43.856186" lon="1.525440">
        <ele>199.6</ele>
        <time>2014-03-15T15:20:49Z</time>
      </trkpt>
      <trkpt lat="43.856103" lon="1.525338">
        <ele>200.1</ele>
        <time>2014-03-15T15:20:57Z</time>
      </trkpt>
      <trkpt lat="43.856009" lon="1.525276">
        <ele>200.6</ele>
        <time>2014-03-15T15:21:06Z</time>
      </trkpt>
      <trkpt lat="43.855936" lon="1.525220">
        <ele>201.2</ele>
        <time>2014-03-15T15:21:26Z</time>
      </trkpt>
      <trkpt lat="43.855855" lon="1.525162">
        <ele>200.9</ele>
        <time>2014-03-15T15:21:32Z</time>
      </trkpt>
      <trkpt lat="43.855770" lon="1.525104">
        <ele>201.2</ele>
        <time>2014-03-15T15:21:39Z</time>
      </trkpt>
      <trkpt lat="43.855696" lon="1.525158">
        <ele>202.5</ele>
        <time>2014-03-15T15:21:47Z</time>
      </trkpt>
      <trkpt lat="43.855634" lon="1.525191">
        <ele>205.4</ele>
        <time>2014-03-15T15:22:36Z</time>
      </trkpt>
      <trkpt lat="43.855705" lon="1.525131">
        <ele>204.5</ele>
        <time>2014-03-15T15:22:46Z</time>
      </trkpt>
      <trkpt lat="43.855685" lon="1.525040">
        <ele>203.1</ele>
        <time>2014-03-15T15:23:27Z</time>
      </trkpt>
      <trkpt lat="43.855591" lon="1.525001">
        <ele>203.7</ele>
        <time>2014-03-15T15:23:34Z</time>
      </trkpt>
      <trkpt lat="43.855502" lon="1.524958">
        <ele>204.2</ele>
        <time>2014-03-15T15:23:42Z</time>
      </trkpt>
      <trkpt lat="43.855412" lon="1.524916">
        <ele>204.7</ele>
        <time>2014-03-15T15:23:49Z</time>
      </trkpt>
      <trkpt lat="43.855329" lon="1.524878">
        <ele>205.0</ele>
        <time>2014-03-15T15:23:56Z</time>
      </trkpt>
      <trkpt lat="43.855233" lon="1.524820">
        <ele>205.5</ele>
        <time>2014-03-15T15:24:04Z</time>
      </trkpt>
      <trkpt lat="43.855135" lon="1.524768">
        <ele>206.3</ele>
        <time>2014-03-15T15:24:12Z</time>
      </trkpt>
      <trkpt lat="43.855034" lon="1.524700">
        <ele>207.3</ele>
        <time>2014-03-15T15:24:20Z</time>
      </trkpt>
      <trkpt lat="43.854935" lon="1.524627">
        <ele>207.6</ele>
        <time>2014-03-15T15:24:29Z</time>
      </trkpt>
      <trkpt lat="43.854833" lon="1.524559">
        <ele>208.2</ele>
        <time>2014-03-15T15:24:38Z</time>
      </trkpt>
      <trkpt lat="43.854739" lon="1.524497">
        <ele>208.8</ele>
        <time>2014-03-15T15:24:44Z</time>
      </trkpt>
      <trkpt lat="43.854637" lon="1.524425">
        <ele>209.3</ele>
        <time>2014-03-15T15:24:53Z</time>
      </trkpt>
      <trkpt lat="43.854550" lon="1.524380">
        <ele>209.1</ele>
        <time>2014-03-15T15:25:00Z</time>
      </trkpt>
      <trkpt lat="43.854464" lon="1.524342">
        <ele>209.1</ele>
        <time>2014-03-15T15:25:07Z</time>
      </trkpt>
      <trkpt lat="43.854374" lon="1.524281">
        <ele>209.1</ele>
        <time>2014-03-15T15:25:13Z</time>
      </trkpt>
      <trkpt lat="43.854290" lon="1.524216">
        <ele>209.2</ele>
        <time>2014-03-15T15:25:20Z</time>
      </trkpt>
      <trkpt lat="43.854223" lon="1.524156">
        <ele>209.1</ele>
        <time>2014-03-15T15:25:26Z</time>
      </trkpt>
      <trkpt lat="43.854154" lon="1.524098">
        <ele>209.5</ele>
        <time>2014-03-15T15:25:34Z</time>
      </trkpt>
      <trkpt lat="43.854070" lon="1.524018">
        <ele>209.7</ele>
        <time>2014-03-15T15:25:42Z</time>
      </trkpt>
      <trkpt lat="43.853989" lon="1.523944">
        <ele>210.2</ele>
        <time>2014-03-15T15:25:49Z</time>
      </trkpt>
      <trkpt lat="43.853903" lon="1.523884">
        <ele>211.8</ele>
        <time>2014-03-15T15:26:43Z</time>
      </trkpt>
      <trkpt lat="43.853822" lon="1.523815">
        <ele>211.2</ele>
        <time>2014-03-15T15:26:52Z</time>
      </trkpt>
      <trkpt lat="43.853740" lon="1.523746">
        <ele>211.8</ele>
        <time>2014-03-15T15:27:01Z</time>
      </trkpt>
      <trkpt lat="43.853666" lon="1.523661">
        <ele>211.9</ele>
        <time>2014-03-15T15:27:09Z</time>
      </trkpt>
      <trkpt lat="43.853590" lon="1.523587">
        <ele>212.2</ele>
        <time>2014-03-15T15:27:17Z</time>
      </trkpt>
      <trkpt lat="43.853518" lon="1.523521">
        <ele>212.3</ele>
        <time>2014-03-15T15:27:24Z</time>
      </trkpt>
      <trkpt lat="43.853442" lon="1.523446">
        <ele>212.9</ele>
        <time>2014-03-15T15:27:32Z</time>
      </trkpt>
      <trkpt lat="43.853363" lon="1.523383">
        <ele>213.3</ele>
        <time>2014-03-15T15:27:40Z</time>
      </trkpt>
      <trkpt lat="43.853284" lon="1.523308">
        <ele>213.5</ele>
        <time>2014-03-15T15:27:48Z</time>
      </trkpt>
      <trkpt lat="43.853207" lon="1.523228">
        <ele>214.1</ele>
        <time>2014-03-15T15:27:56Z</time>
        <name>Croix de Peyre</name>
      </trkpt>
      <trkpt lat="43.853130" lon="1.523145">
        <ele>214.3</ele>
        <time>2014-03-15T15:28:04Z</time>
      </trkpt>
      <trkpt lat="43.853056" lon="1.523077">
        <ele>215.4</ele>
        <time>2014-03-15T15:28:29Z</time>
      </trkpt>
      <trkpt lat="43.852984" lon="1.523009">
        <ele>215.4</ele>
        <time>2014-03-15T15:28:37Z</time>
      </trkpt>
      <trkpt lat="43.852902" lon="1.522941">
        <ele>215.6</ele>
        <time>2014-03-15T15:28:45Z</time>
      </trkpt>
      <trkpt lat="43.852831" lon="1.522860">
        <ele>215.6</ele>
        <time>2014-03-15T15:28:53Z</time>
      </trkpt>
      <trkpt lat="43.852753" lon="1.522781">
        <ele>215.5</ele>
        <time>2014-03-15T15:29:01Z</time>
      </trkpt>
      <trkpt lat="43.852676" lon="1.522714">
        <ele>215.1</ele>
        <time>2014-03-15T15:29:09Z</time>
      </trkpt>
      <trkpt lat="43.852587" lon="1.522644">
        <ele>214.6</ele>
        <time>2014-03-15T15:29:18Z</time>
      </trkpt>
      <trkpt lat="43.852518" lon="1.522560">
        <ele>213.8</ele>
        <time>2014-03-15T15:29:26Z</time>
      </trkpt>
      <trkpt lat="43.852435" lon="1.522470">
        <ele>213.3</ele>
        <time>2014-03-15T15:29:33Z</time>
      </trkpt>
      <trkpt lat="43.852363" lon="1.522393">
        <ele>212.9</ele>
        <time>2014-03-15T15:29:41Z</time>
      </trkpt>
      <trkpt lat="43.852275" lon="1.522330">
        <ele>212.7</ele>
        <time>2014-03-15T15:29:48Z</time>
      </trkpt>
      <trkpt lat="43.852188" lon="1.522275">
        <ele>212.7</ele>
        <time>2014-03-15T15:29:55Z</time>
      </trkpt>
      <trkpt lat="43.852104" lon="1.522219">
        <ele>212.3</ele>
        <time>2014-03-15T15:30:02Z</time>
      </trkpt>
      <trkpt lat="43.852009" lon="1.522165">
        <ele>212.0</ele>
        <time>2014-03-15T15:30:10Z</time>
      </trkpt>
      <trkpt lat="43.851913" lon="1.522127">
        <ele>211.5</ele>
        <time>2014-03-15T15:30:17Z</time>
      </trkpt>
      <trkpt lat="43.851823" lon="1.522096">
        <ele>211.2</ele>
        <time>2014-03-15T15:30:24Z</time>
      </trkpt>
      <trkpt lat="43.851725" lon="1.522047">
        <ele>211.0</ele>
        <time>2014-03-15T15:30:32Z</time>
      </trkpt>
      <trkpt lat="43.851625" lon="1.522020">
        <ele>210.6</ele>
        <time>2014-03-15T15:30:39Z</time>
      </trkpt>
      <trkpt lat="43.851533" lon="1.521980">
        <ele>209.8</ele>
        <time>2014-03-15T15:30:46Z</time>
      </trkpt>
      <trkpt lat="43.851443" lon="1.521968">
        <ele>209.4</ele>
        <time>2014-03-15T15:30:53Z</time>
      </trkpt>
      <trkpt lat="43.851339" lon="1.521963">
        <ele>209.0</ele>
        <time>2014-03-15T15:31:01Z</time>
      </trkpt>
      <trkpt lat="43.851242" lon="1.521937">
        <ele>208.7</ele>
        <time>2014-03-15T15:31:09Z</time>
      </trkpt>
      <trkpt lat="43.851143" lon="1.521920">
        <ele>208.3</ele>
        <time>2014-03-15T15:31:17Z</time>
      </trkpt>
      <trkpt lat="43.851033" lon="1.521893">
        <ele>207.4</ele>
        <time>2014-03-15T15:31:25Z</time>
      </trkpt>
      <trkpt lat="43.850934" lon="1.521862">
        <ele>206.8</ele>
        <time>2014-03-15T15:31:33Z</time>
      </trkpt>
      <trkpt lat="43.850835" lon="1.521829">
        <ele>205.8</ele>
        <time>2014-03-15T15:31:41Z</time>
      </trkpt>
      <trkpt lat="43.850732" lon="1.521791">
        <ele>205.3</ele>
        <time>2014-03-15T15:31:49Z</time>
      </trkpt>
      <trkpt lat="43.850638" lon="1.521777">
        <ele>204.7</ele>
        <time>2014-03-15T15:31:56Z</time>
      </trkpt>
      <trkpt lat="43.850541" lon="1.521764">
        <ele>204.1</ele>
        <time>2014-03-15T15:32:03Z</time>
      </trkpt>
      <trkpt lat="43.850435" lon="1.521720">
        <ele>203.5</ele>
        <time>2014-03-15T15:32:11Z</time>
      </trkpt>
      <trkpt lat="43.850343" lon="1.521717">
        <ele>203.5</ele>
        <time>2014-03-15T15:32:18Z</time>
      </trkpt>
      <trkpt lat="43.850250" lon="1.521722">
        <ele>203.5</ele>
        <time>2014-03-15T15:32:25Z</time>
      </trkpt>
      <trkpt lat="43.850154" lon="1.521713">
        <ele>203.5</ele>
        <time>2014-03-15T15:32:32Z</time>
      </trkpt>
      <trkpt lat="43.850061" lon="1.521719">
        <ele>203.5</ele>
        <time>2014-03-15T15:32:39Z</time>
      </trkpt>
      <trkpt lat="43.849972" lon="1.521750">
        <ele>203.6</ele>
        <time>2014-03-15T15:32:46Z</time>
      </trkpt>
      <trkpt lat="43.849886" lon="1.521794">
        <ele>203.9</ele>
        <time>2014-03-15T15:32:54Z</time>
      </trkpt>
      <trkpt lat="43.849797" lon="1.521843">
        <ele>204.1</ele>
        <time>2014-03-15T15:33:03Z</time>
      </trkpt>
      <trkpt lat="43.849709" lon="1.521894">
        <ele>204.7</ele>
        <time>2014-03-15T15:33:11Z</time>
      </trkpt>
      <trkpt lat="43.849613" lon="1.521940">
        <ele>205.3</ele>
        <time>2014-03-15T15:33:19Z</time>
      </trkpt>
      <trkpt lat="43.849515" lon="1.521999">
        <ele>205.6</ele>
        <time>2014-03-15T15:33:27Z</time>
      </trkpt>
      <trkpt lat="43.849418" lon="1.522045">
        <ele>206.2</ele>
        <time>2014-03-15T15:33:35Z</time>
      </trkpt>
      <trkpt lat="43.849324" lon="1.522094">
        <ele>206.4</ele>
        <time>2014-03-15T15:33:43Z</time>
      </trkpt>
      <trkpt lat="43.849222" lon="1.522136">
        <ele>206.8</ele>
        <time>2014-03-15T15:33:52Z</time>
      </trkpt>
      <trkpt lat="43.849129" lon="1.522190">
        <ele>207.4</ele>
        <time>2014-03-15T15:34:00Z</time>
      </trkpt>
      <trkpt lat="43.849046" lon="1.522288">
        <ele>207.6</ele>
        <time>2014-03-15T15:34:09Z</time>
      </trkpt>
      <trkpt lat="43.848974" lon="1.522404">
        <ele>207.3</ele>
        <time>2014-03-15T15:34:17Z</time>
      </trkpt>
      <trkpt lat="43.848901" lon="1.522502">
        <ele>206.9</ele>
        <time>2014-03-15T15:34:53Z</time>
      </trkpt>
      <trkpt lat="43.848818" lon="1.522599">
        <ele>206.8</ele>
        <time>2014-03-15T15:35:02Z</time>
      </trkpt>
      <trkpt lat="43.848755" lon="1.522698">
        <ele>206.5</ele>
        <time>2014-03-15T15:35:10Z</time>
      </trkpt>
      <trkpt lat="43.848696" lon="1.522780">
        <ele>206.0</ele>
        <time>2014-03-15T15:37:36Z</time>
      </trkpt>
      <trkpt lat="43.848629" lon="1.522890">
        <ele>205.4</ele>
        <time>2014-03-15T15:37:51Z</time>
      </trkpt>
      <trkpt lat="43.848554" lon="1.522981">
        <ele>205.6</ele>
        <time>2014-03-15T15:38:02Z</time>
      </trkpt>
      <trkpt lat="43.848484" lon="1.523066">
        <ele>205.5</ele>
        <time>2014-03-15T15:38:11Z</time>
      </trkpt>
      <trkpt lat="43.848410" lon="1.523143">
        <ele>205.3</ele>
        <time>2014-03-15T15:38:21Z</time>
      </trkpt>
      <trkpt lat="43.848332" lon="1.523246">
        <ele>205.1</ele>
        <time>2014-03-15T15:38:32Z</time>
      </trkpt>
      <trkpt lat="43.848265" lon="1.523347">
        <ele>205.2</ele>
        <time>2014-03-15T15:38:42Z</time>
      </trkpt>
      <trkpt lat="43.848194" lon="1.523434">
        <ele>205.1</ele>
        <time>2014-03-15T15:38:51Z</time>
      </trkpt>
      <trkpt lat="43.848114" lon="1.523532">
        <ele>204.8</ele>
        <time>2014-03-15T15:39:02Z</time>
      </trkpt>
      <trkpt lat="43.848033" lon="1.523650">
        <ele>204.8</ele>
        <time>2014-03-15T15:39:13Z</time>
      </trkpt>
      <trkpt lat="43.847965" lon="1.523752">
        <ele>204.5</ele>
        <time>2014-03-15T15:39:21Z</time>
      </trkpt>
      <trkpt lat="43.847893" lon="1.523862">
        <ele>204.5</ele>
        <time>2014-03-15T15:39:29Z</time>
      </trkpt>
      <trkpt lat="43.847812" lon="1.523967">
        <ele>204.1</ele>
        <time>2014-03-15T15:39:38Z</time>
      </trkpt>
      <trkpt lat="43.847743" lon="1.524061">
        <ele>204.1</ele>
        <time>2014-03-15T15:39:46Z</time>
      </trkpt>
      <trkpt lat="43.847674" lon="1.524148">
        <ele>204.2</ele>
        <time>2014-03-15T15:39:54Z</time>
      </trkpt>
      <trkpt lat="43.847599" lon="1.524233">
        <ele>204.0</ele>
        <time>2014-03-15T15:40:02Z</time>
      </trkpt>
      <trkpt lat="43.847522" lon="1.524307">
        <ele>204.3</ele>
        <time>2014-03-15T15:40:11Z</time>
      </trkpt>
      <trkpt lat="43.847442" lon="1.524392">
        <ele>204.4</ele>
        <time>2014-03-15T15:40:20Z</time>
      </trkpt>
      <trkpt lat="43.847366" lon="1.524464">
        <ele>204.5</ele>
        <time>2014-03-15T15:40:28Z</time>
      </trkpt>
      <trkpt lat="43.847291" lon="1.524542">
        <ele>204.5</ele>
        <time>2014-03-15T15:40:36Z</time>
      </trkpt>
      <trkpt lat="43.847207" lon="1.524618">
        <ele>204.8</ele>
        <time>2014-03-15T15:40:45Z</time>
      </trkpt>
      <trkpt lat="43.847123" lon="1.524706">
        <ele>205.2</ele>
        <time>2014-03-15T15:40:54Z</time>
      </trkpt>
      <trkpt lat="43.847046" lon="1.524775">
        <ele>205.4</ele>
        <time>2014-03-15T15:41:02Z</time>
      </trkpt>
      <trkpt lat="43.846965" lon="1.524855">
        <ele>205.9</ele>
        <time>2014-03-15T15:41:10Z</time>
      </trkpt>
      <trkpt lat="43.846890" lon="1.524935">
        <ele>206.4</ele>
        <time>2014-03-15T15:41:18Z</time>
      </trkpt>
      <trkpt lat="43.846816" lon="1.525016">
        <ele>206.7</ele>
        <time>2014-03-15T15:41:26Z</time>
      </trkpt>
      <trkpt lat="43.846747" lon="1.525110">
        <ele>206.9</ele>
        <time>2014-03-15T15:41:34Z</time>
      </trkpt>
      <trkpt lat="43.846689" lon="1.525216">
        <ele>206.9</ele>
        <time>2014-03-15T15:41:42Z</time>
      </trkpt>
      <trkpt lat="43.846641" lon="1.525338">
        <ele>207.0</ele>
        <time>2014-03-15T15:41:51Z</time>
      </trkpt>
      <trkpt lat="43.846597" lon="1.525451">
        <ele>207.1</ele>
        <time>2014-03-15T15:41:58Z</time>
      </trkpt>
      <trkpt lat="43.846560" lon="1.525575">
        <ele>207.1</ele>
        <time>2014-03-15T15:42:06Z</time>
      </trkpt>
      <trkpt lat="43.846520" lon="1.525699">
        <ele>206.4</ele>
        <time>2014-03-15T15:42:14Z</time>
      </trkpt>
      <trkpt lat="43.846477" lon="1.525833">
        <ele>205.9</ele>
        <time>2014-03-15T15:42:22Z</time>
      </trkpt>
      <trkpt lat="43.846434" lon="1.525955">
        <ele>205.6</ele>
        <time>2014-03-15T15:42:31Z</time>
      </trkpt>
      <trkpt lat="43.846385" lon="1.526070">
        <ele>205.3</ele>
        <time>2014-03-15T15:42:39Z</time>
      </trkpt>
      <trkpt lat="43.846335" lon="1.526183">
        <ele>205.2</ele>
        <time>2014-03-15T15:42:47Z</time>
      </trkpt>
      <trkpt lat="43.846276" lon="1.526295">
        <ele>205.1</ele>
        <time>2014-03-15T15:42:56Z</time>
      </trkpt>
      <trkpt lat="43.846225" lon="1.526415">
        <ele>205.1</ele>
        <time>2014-03-15T15:43:04Z</time>
      </trkpt>
      <trkpt lat="43.846167" lon="1.526527">
        <ele>204.9</ele>
        <time>2014-03-15T15:43:12Z</time>
      </trkpt>
      <trkpt lat="43.846109" lon="1.526638">
        <ele>204.8</ele>
        <time>2014-03-15T15:43:20Z</time>
      </trkpt>
      <trkpt lat="43.846056" lon="1.526740">
        <ele>204.8</ele>
        <time>2014-03-15T15:43:28Z</time>
      </trkpt>
      <trkpt lat="43.846013" lon="1.526850">
        <ele>205.1</ele>
        <time>2014-03-15T15:43:37Z</time>
      </trkpt>
      <trkpt lat="43.845979" lon="1.526967">
        <ele>204.4</ele>
        <time>2014-03-15T15:43:46Z</time>
      </trkpt>
      <trkpt lat="43.845951" lon="1.527094">
        <ele>203.4</ele>
        <time>2014-03-15T15:43:54Z</time>
      </trkpt>
      <trkpt lat="43.845930" lon="1.527218">
        <ele>202.1</ele>
        <time>2014-03-15T15:44:05Z</time>
      </trkpt>
      <trkpt lat="43.845908" lon="1.527344">
        <ele>201.0</ele>
        <time>2014-03-15T15:44:14Z</time>
      </trkpt>
      <trkpt lat="43.845882" lon="1.527468">
        <ele>200.1</ele>
        <time>2014-03-15T15:44:23Z</time>
      </trkpt>
      <trkpt lat="43.845844" lon="1.527602">
        <ele>199.2</ele>
        <time>2014-03-15T15:44:32Z</time>
      </trkpt>
      <trkpt lat="43.845805" lon="1.527723">
        <ele>198.5</ele>
        <time>2014-03-15T15:44:40Z</time>
      </trkpt>
      <trkpt lat="43.845788" lon="1.527858">
        <ele>198.0</ele>
        <time>2014-03-15T15:44:48Z</time>
      </trkpt>
      <trkpt lat="43.845773" lon="1.528009">
        <ele>197.4</ele>
        <time>2014-03-15T15:44:59Z</time>
      </trkpt>
      <trkpt lat="43.845753" lon="1.528163">
        <ele>196.6</ele>
        <time>2014-03-15T15:45:08Z</time>
      </trkpt>
      <trkpt lat="43.845732" lon="1.528291">
        <ele>196.3</ele>
        <time>2014-03-15T15:45:16Z</time>
      </trkpt>
      <trkpt lat="43.845685" lon="1.528412">
        <ele>195.5</ele>
        <time>2014-03-15T15:45:25Z</time>
      </trkpt>
      <trkpt lat="43.845626" lon="1.528526">
        <ele>195.0</ele>
        <time>2014-03-15T15:45:36Z</time>
      </trkpt>
      <trkpt lat="43.845566" lon="1.528639">
        <ele>194.9</ele>
        <time>2014-03-15T15:45:46Z</time>
      </trkpt>
      <trkpt lat="43.845494" lon="1.528799">
        <ele>194.8</ele>
        <time>2014-03-15T15:45:57Z</time>
      </trkpt>
      <trkpt lat="43.845428" lon="1.528919">
        <ele>194.9</ele>
        <time>2014-03-15T15:46:07Z</time>
      </trkpt>
      <trkpt lat="43.845372" lon="1.529038">
        <ele>195.2</ele>
        <time>2014-03-15T15:46:15Z</time>
      </trkpt>
      <trkpt lat="43.845309" lon="1.529148">
        <ele>195.5</ele>
        <time>2014-03-15T15:46:22Z</time>
      </trkpt>
      <trkpt lat="43.845266" lon="1.529268">
        <ele>195.8</ele>
        <time>2014-03-15T15:46:31Z</time>
      </trkpt>
      <trkpt lat="43.845242" lon="1.529389">
        <ele>195.6</ele>
        <time>2014-03-15T15:46:40Z</time>
      </trkpt>
      <trkpt lat="43.845224" lon="1.529525">
        <ele>195.3</ele>
        <time>2014-03-15T15:46:49Z</time>
      </trkpt>
      <trkpt lat="43.845196" lon="1.529638">
        <ele>194.5</ele>
        <time>2014-03-15T15:46:59Z</time>
      </trkpt>
      <trkpt lat="43.845163" lon="1.529779">
        <ele>194.0</ele>
        <time>2014-03-15T15:47:07Z</time>
      </trkpt>
      <trkpt lat="43.845130" lon="1.529917">
        <ele>193.0</ele>
        <time>2014-03-15T15:47:17Z</time>
      </trkpt>
      <trkpt lat="43.845099" lon="1.530051">
        <ele>192.1</ele>
        <time>2014-03-15T15:47:26Z</time>
      </trkpt>
      <trkpt lat="43.845067" lon="1.530147">
        <ele>191.9</ele>
        <time>2014-03-15T15:47:33Z</time>
      </trkpt>
      <trkpt lat="43.845026" lon="1.530280">
        <ele>191.9</ele>
        <time>2014-03-15T15:47:42Z</time>
      </trkpt>
      <trkpt lat="43.844981" lon="1.530391">
        <ele>191.5</ele>
        <time>2014-03-15T15:47:50Z</time>
      </trkpt>
      <trkpt lat="43.844938" lon="1.530503">
        <ele>191.2</ele>
        <time>2014-03-15T15:47:58Z</time>
      </trkpt>
      <trkpt lat="43.844880" lon="1.530612">
        <ele>191.2</ele>
        <time>2014-03-15T15:48:06Z</time>
      </trkpt>
      <trkpt lat="43.844811" lon="1.530723">
        <ele>191.1</ele>
        <time>2014-03-15T15:48:15Z</time>
      </trkpt>
      <trkpt lat="43.844748" lon="1.530821">
        <ele>190.7</ele>
        <time>2014-03-15T15:48:23Z</time>
      </trkpt>
      <trkpt lat="43.844677" lon="1.530920">
        <ele>190.0</ele>
        <time>2014-03-15T15:48:32Z</time>
      </trkpt>
      <trkpt lat="43.844611" lon="1.531016">
        <ele>189.9</ele>
        <time>2014-03-15T15:48:41Z</time>
      </trkpt>
      <trkpt lat="43.844552" lon="1.531121">
        <ele>189.7</ele>
        <time>2014-03-15T15:48:49Z</time>
      </trkpt>
      <trkpt lat="43.844486" lon="1.531238">
        <ele>189.6</ele>
        <time>2014-03-15T15:48:57Z</time>
      </trkpt>
      <trkpt lat="43.844418" lon="1.531346">
        <ele>189.5</ele>
        <time>2014-03-15T15:49:05Z</time>
      </trkpt>
      <trkpt lat="43.844366" lon="1.531448">
        <ele>189.3</ele>
        <time>2014-03-15T15:49:13Z</time>
      </trkpt>
      <trkpt lat="43.844309" lon="1.531557">
        <ele>189.3</ele>
        <time>2014-03-15T15:49:21Z</time>
      </trkpt>
      <trkpt lat="43.844252" lon="1.531664">
        <ele>189.3</ele>
        <time>2014-03-15T15:49:29Z</time>
      </trkpt>
      <trkpt lat="43.844197" lon="1.531780">
        <ele>188.8</ele>
        <time>2014-03-15T15:49:38Z</time>
      </trkpt>
      <trkpt lat="43.844153" lon="1.531897">
        <ele>188.5</ele>
        <time>2014-03-15T15:49:46Z</time>
      </trkpt>
      <trkpt lat="43.844098" lon="1.532018">
        <ele>187.9</ele>
        <time>2014-03-15T15:49:55Z</time>
      </trkpt>
      <trkpt lat="43.844051" lon="1.532127">
        <ele>187.3</ele>
        <time>2014-03-15T15:50:03Z</time>
      </trkpt>
      <trkpt lat="43.844000" lon="1.532244">
        <ele>186.4</ele>
        <time>2014-03-15T15:50:12Z</time>
      </trkpt>
      <trkpt lat="43.843959" lon="1.532352">
        <ele>185.7</ele>
        <time>2014-03-15T15:50:19Z</time>
      </trkpt>
      <trkpt lat="43.843906" lon="1.532468">
        <ele>185.0</ele>
        <time>2014-03-15T15:50:28Z</time>
      </trkpt>
      <trkpt lat="43.843862" lon="1.532598">
        <ele>184.0</ele>
        <time>2014-03-15T15:50:37Z</time>
      </trkpt>
      <trkpt lat="43.843822" lon="1.532715">
        <ele>182.9</ele>
        <time>2014-03-15T15:50:45Z</time>
      </trkpt>
      <trkpt lat="43.843804" lon="1.532843">
        <ele>182.0</ele>
        <time>2014-03-15T15:50:53Z</time>
      </trkpt>
      <trkpt lat="43.843792" lon="1.532974">
        <ele>180.9</ele>
        <time>2014-03-15T15:51:01Z</time>
      </trkpt>
      <trkpt lat="43.843766" lon="1.533093">
        <ele>179.9</ele>
        <time>2014-03-15T15:51:08Z</time>
      </trkpt>
      <trkpt lat="43.843746" lon="1.533215">
        <ele>178.9</ele>
        <time>2014-03-15T15:51:16Z</time>
      </trkpt>
      <trkpt lat="43.843722" lon="1.533375">
        <ele>177.9</ele>
        <time>2014-03-15T15:51:26Z</time>
      </trkpt>
      <trkpt lat="43.843690" lon="1.533544">
        <ele>175.9</ele>
        <time>2014-03-15T15:51:37Z</time>
      </trkpt>
      <trkpt lat="43.843658" lon="1.533694">
        <ele>174.2</ele>
        <time>2014-03-15T15:51:48Z</time>
      </trkpt>
      <trkpt lat="43.843635" lon="1.533845">
        <ele>171.4</ele>
        <time>2014-03-15T15:52:00Z</time>
      </trkpt>
      <trkpt lat="43.843615" lon="1.533988">
        <ele>169.8</ele>
        <time>2014-03-15T15:52:10Z</time>
      </trkpt>
      <trkpt lat="43.843591" lon="1.534127">
        <ele>168.1</ele>
        <time>2014-03-15T15:52:20Z</time>
      </trkpt>
      <trkpt lat="43.843551" lon="1.534264">
        <ele>166.4</ele>
        <time>2014-03-15T15:52:32Z</time>
      </trkpt>
      <trkpt lat="43.843483" lon="1.534411">
        <ele>165.4</ele>
        <time>2014-03-15T15:52:44Z</time>
      </trkpt>
      <trkpt lat="43.843450" lon="1.534561">
        <ele>164.3</ele>
        <time>2014-03-15T15:52:54Z</time>
      </trkpt>
      <trkpt lat="43.843490" lon="1.534717">
        <ele>162.8</ele>
        <time>2014-03-15T15:53:05Z</time>
      </trkpt>
      <trkpt lat="43.843543" lon="1.534864">
        <ele>161.0</ele>
        <time>2014-03-15T15:53:17Z</time>
      </trkpt>
      <trkpt lat="43.843503" lon="1.535008">
        <ele>158.7</ele>
        <time>2014-03-15T15:53:32Z</time>
      </trkpt>
      <trkpt lat="43.843417" lon="1.535012">
        <ele>155.9</ele>
        <time>2014-03-15T15:53:45Z</time>
      </trkpt>
      <trkpt lat="43.843302" lon="1.534999">
        <ele>153.1</ele>
        <time>2014-03-15T15:53:58Z</time>
      </trkpt>
      <trkpt lat="43.843172" lon="1.534972">
        <ele>150.4</ele>
        <time>2014-03-15T15:54:10Z</time>
      </trkpt>
      <trkpt lat="43.843081" lon="1.534935">
        <ele>148.3</ele>
        <time>2014-03-15T15:54:19Z</time>
      </trkpt>
      <trkpt lat="43.842982" lon="1.534891">
        <ele>146.0</ele>
        <time>2014-03-15T15:54:28Z</time>
      </trkpt>
      <trkpt lat="43.842884" lon="1.534831">
        <ele>143.6</ele>
        <time>2014-03-15T15:54:38Z</time>
      </trkpt>
      <trkpt lat="43.842801" lon="1.534774">
        <ele>142.0</ele>
        <time>2014-03-15T15:54:47Z</time>
      </trkpt>
      <trkpt lat="43.842716" lon="1.534693">
        <ele>139.8</ele>
        <time>2014-03-15T15:54:57Z</time>
      </trkpt>
      <trkpt lat="43.842633" lon="1.534600">
        <ele>137.6</ele>
        <time>2014-03-15T15:55:08Z</time>
      </trkpt>
      <trkpt lat="43.842550" lon="1.534514">
        <ele>134.9</ele>
        <time>2014-03-15T15:55:19Z</time>
      </trkpt>
      <trkpt lat="43.842443" lon="1.534435">
        <ele>132.9</ele>
        <time>2014-03-15T15:55:29Z</time>
      </trkpt>
      <trkpt lat="43.842345" lon="1.534408">
        <ele>131.2</ele>
        <time>2014-03-15T15:55:38Z</time>
      </trkpt>
      <trkpt lat="43.842246" lon="1.534385">
        <ele>129.0</ele>
        <time>2014-03-15T15:55:48Z</time>
      </trkpt>
      <trkpt lat="43.842151" lon="1.534379">
        <ele>127.4</ele>
        <time>2014-03-15T15:55:59Z</time>
      </trkpt>
      <trkpt lat="43.842058" lon="1.534373">
        <ele>125.4</ele>
        <time>2014-03-15T15:56:10Z</time>
      </trkpt>
      <trkpt lat="43.841953" lon="1.534408">
        <ele>123.2</ele>
        <time>2014-03-15T15:56:20Z</time>
      </trkpt>
      <trkpt lat="43.841917" lon="1.534520">
        <ele>122.2</ele>
        <time>2014-03-15T15:56:30Z</time>
      </trkpt>
      <trkpt lat="43.841907" lon="1.534696">
        <ele>121.2</ele>
        <time>2014-03-15T15:56:41Z</time>
      </trkpt>
      <trkpt lat="43.841879" lon="1.534841">
        <ele>120.2</ele>
        <time>2014-03-15T15:56:49Z</time>
      </trkpt>
      <trkpt lat="43.841867" lon="1.534973">
        <ele>119.7</ele>
        <time>2014-03-15T15:56:57Z</time>
      </trkpt>
      <trkpt lat="43.841849" lon="1.535112">
        <ele>119.3</ele>
        <time>2014-03-15T15:57:05Z</time>
      </trkpt>
      <trkpt lat="43.841840" lon="1.535251">
        <ele>118.7</ele>
        <time>2014-03-15T15:57:13Z</time>
      </trkpt>
      <trkpt lat="43.841827" lon="1.535385">
        <ele>118.0</ele>
        <time>2014-03-15T15:57:21Z</time>
      </trkpt>
      <trkpt lat="43.841803" lon="1.535538">
        <ele>117.2</ele>
        <time>2014-03-15T15:57:31Z</time>
      </trkpt>
      <trkpt lat="43.841784" lon="1.535678">
        <ele>116.7</ele>
        <time>2014-03-15T15:57:40Z</time>
      </trkpt>
      <trkpt lat="43.841776" lon="1.535763">
        <ele>115.9</ele>
        <time>2014-03-15T15:58:42Z</time>
      </trkpt>
      <trkpt lat="43.841707" lon="1.535869">
        <ele>115.8</ele>
        <time>2014-03-15T15:58:54Z</time>
      </trkpt>
      <trkpt lat="43.841653" lon="1.535985">
        <ele>115.6</ele>
        <time>2014-03-15T15:59:03Z</time>
      </trkpt>
      <trkpt lat="43.841600" lon="1.536103">
        <ele>116.3</ele>
        <time>2014-03-15T15:59:12Z</time>
      </trkpt>
      <trkpt lat="43.841534" lon="1.536207">
        <ele>116.7</ele>
        <time>2014-03-15T15:59:22Z</time>
      </trkpt>
      <trkpt lat="43.841419" lon="1.536252">
        <ele>117.4</ele>
        <time>2014-03-15T15:59:35Z</time>
      </trkpt>
      <trkpt lat="43.841324" lon="1.536284">
        <ele>117.5</ele>
        <time>2014-03-15T15:59:46Z</time>
      </trkpt>
      <trkpt lat="43.841223" lon="1.536318">
        <ele>117.5</ele>
        <time>2014-03-15T15:59:58Z</time>
      </trkpt>
      <trkpt lat="43.841129" lon="1.536369">
        <ele>117.0</ele>
        <time>2014-03-15T16:00:10Z</time>
      </trkpt>
      <trkpt lat="43.841035" lon="1.536420">
        <ele>117.1</ele>
        <time>2014-03-15T16:00:21Z</time>
      </trkpt>
      <trkpt lat="43.840963" lon="1.536511">
        <ele>118.5</ele>
        <time>2014-03-15T16:00:33Z</time>
      </trkpt>
      <trkpt lat="43.840877" lon="1.536589">
        <ele>119.3</ele>
        <time>2014-03-15T16:00:45Z</time>
      </trkpt>
      <trkpt lat="43.840785" lon="1.536676">
        <ele>120.3</ele>
        <time>2014-03-15T16:00:57Z</time>
      </trkpt>
      <trkpt lat="43.840720" lon="1.536804">
        <ele>120.8</ele>
        <time>2014-03-15T16:01:10Z</time>
      </trkpt>
      <trkpt lat="43.840621" lon="1.536912">
        <ele>121.2</ele>
        <time>2014-03-15T16:01:24Z</time>
      </trkpt>
      <trkpt lat="43.840524" lon="1.537020">
        <ele>121.5</ele>
        <time>2014-03-15T16:01:38Z</time>
      </trkpt>
      <trkpt lat="43.840462" lon="1.537144">
        <ele>121.8</ele>
        <time>2014-03-15T16:01:50Z</time>
      </trkpt>
      <trkpt lat="43.840440" lon="1.537284">
        <ele>122.2</ele>
        <time>2014-03-15T16:02:01Z</time>
      </trkpt>
      <trkpt lat="43.840499" lon="1.537345">
        <ele>122.5</ele>
        <time>2014-03-15T16:02:18Z</time>
      </trkpt>
      <trkpt lat="43.840579" lon="1.537435">
        <ele>122.2</ele>
        <time>2014-03-15T16:02:30Z</time>
      </trkpt>
      <trkpt lat="43.840649" lon="1.537536">
        <ele>122.1</ele>
        <time>2014-03-15T16:02:42Z</time>
      </trkpt>
      <trkpt lat="43.840723" lon="1.537629">
        <ele>121.9</ele>
        <time>2014-03-15T16:02:51Z</time>
      </trkpt>
      <trkpt lat="43.840794" lon="1.537726">
        <ele>121.8</ele>
        <time>2014-03-15T16:03:03Z</time>
      </trkpt>
      <trkpt lat="43.840864" lon="1.537819">
        <ele>121.9</ele>
        <time>2014-03-15T16:03:13Z</time>
      </trkpt>
      <trkpt lat="43.840932" lon="1.537908">
        <ele>121.7</ele>
        <time>2014-03-15T16:03:23Z</time>
      </trkpt>
      <trkpt lat="43.841017" lon="1.538000">
        <ele>121.6</ele>
        <time>2014-03-15T16:03:33Z</time>
      </trkpt>
      <trkpt lat="43.841086" lon="1.538084">
        <ele>121.4</ele>
        <time>2014-03-15T16:03:42Z</time>
      </trkpt>
      <trkpt lat="43.841162" lon="1.538194">
        <ele>121.3</ele>
        <time>2014-03-15T16:03:52Z</time>
      </trkpt>
      <trkpt lat="43.841170" lon="1.538325">
        <ele>121.2</ele>
        <time>2014-03-15T16:04:04Z</time>
      </trkpt>
      <trkpt lat="43.841139" lon="1.538468">
        <ele>121.3</ele>
        <time>2014-03-15T16:04:14Z</time>
      </trkpt>
      <trkpt lat="43.841097" lon="1.538591">
        <ele>121.3</ele>
        <time>2014-03-15T16:04:25Z</time>
      </trkpt>
      <trkpt lat="43.841032" lon="1.538695">
        <ele>121.4</ele>
        <time>2014-03-15T16:04:35Z</time>
      </trkpt>
      <trkpt lat="43.840958" lon="1.538809">
        <ele>121.5</ele>
        <time>2014-03-15T16:04:45Z</time>
      </trkpt>
      <trkpt lat="43.840876" lon="1.538908">
        <ele>121.8</ele>
        <time>2014-03-15T16:04:56Z</time>
      </trkpt>
      <trkpt lat="43.840811" lon="1.539013">
        <ele>121.8</ele>
        <time>2014-03-15T16:05:06Z</time>
      </trkpt>
      <trkpt lat="43.840737" lon="1.539111">
        <ele>122.0</ele>
        <time>2014-03-15T16:05:16Z</time>
      </trkpt>
      <trkpt lat="43.840663" lon="1.539226">
        <ele>122.3</ele>
        <time>2014-03-15T16:05:26Z</time>
      </trkpt>
      <trkpt lat="43.840611" lon="1.539335">
        <ele>122.4</ele>
        <time>2014-03-15T16:05:34Z</time>
      </trkpt>
      <trkpt lat="43.840566" lon="1.539442">
        <ele>122.4</ele>
        <time>2014-03-15T16:06:03Z</time>
      </trkpt>
      <trkpt lat="43.840487" lon="1.539573">
        <ele>122.3</ele>
        <time>2014-03-15T16:06:15Z</time>
      </trkpt>
      <trkpt lat="43.840444" lon="1.539719">
        <ele>122.3</ele>
        <time>2014-03-15T16:06:59Z</time>
      </trkpt>
      <trkpt lat="43.840398" lon="1.539795">
        <ele>122.7</ele>
        <time>2014-03-15T16:07:18Z</time>
      </trkpt>
      <trkpt lat="43.840299" lon="1.539753">
        <ele>122.5</ele>
        <time>2014-03-15T16:07:29Z</time>
      </trkpt>
      <trkpt lat="43.840217" lon="1.539691">
        <ele>122.9</ele>
        <time>2014-03-15T16:07:43Z</time>
      </trkpt>
      <trkpt lat="43.840139" lon="1.539721">
        <ele>122.9</ele>
        <time>2014-03-15T16:08:03Z</time>
      </trkpt>
    </trkseg>
  </trk>
</gpx>

